Data for 03/31/2010

Time Sea-Level Adjusted Pressure Absolute Pressure Temperature Relative Humidity Dew Point Precipitation   
(mb) (inHg) (mb) (inHg) (C) (F) (%) (C) (F) (mm) (in)
00:01 1005 29.68 835 24.66 -2.6 27.2 85 -4.8 23.4 -2.244 -0.088
00:02 1005 29.68 835 24.66 -2.6 27.4 85 -4.8 23.4 -2.261 -0.089
00:03 1005 29.68 835 24.66 -2.5 27.5 85 -4.8 23.4 -2.216 -0.087
00:04 1005 29.68 835 24.66 -2.5 27.5 84 -4.8 23.3 -2.21 -0.087
00:05 1005 29.68 835 24.66 -2.5 27.5 84 -4.8 23.3 -2.182 -0.086
00:06 1005 29.68 835 24.66 -2.5 27.6 84 -4.8 23.4 -2.187 -0.086
00:07 1005 29.68 835 24.66 -2.5 27.6 83 -4.9 23.2 -2.164 -0.085
00:08 1005 29.68 835 24.66 -2.4 27.7 83 -4.9 23.2 -2.096 -0.083
00:09 1005 29.68 835 24.66 -2.3 27.8 82 -4.9 23.1 -2.085 -0.082
00:10 1005 29.68 835 24.66 -2.3 27.8 82 -4.9 23.1 -2.028 -0.08
00:11 1005 29.68 835 24.66 -2.3 27.9 82 -4.9 23.2 -2.006 -0.079
00:12 1005 29.68 835 24.66 -2.3 27.8 82 -4.9 23.2 -2.051 -0.081
00:13 1005 29.68 835 24.66 -2.3 27.8 82 -5 23.1 -2.023 -0.08
00:14 1005 29.68 835 24.66 -2.4 27.7 82 -5 23 -2.057 -0.081
00:15 1006 29.71 835 24.66 -2.4 27.7 82 -5.1 22.8 -2.073 -0.082
00:16 1006 29.71 835 24.66 -2.4 27.7 81 -5.3 22.5 -2.051 -0.081
00:17 1006 29.71 835 24.66 -2.4 27.7 80 -5.4 22.3 -2.085 -0.082
00:18 1006 29.71 835 24.66 -2.4 27.7 80 -5.4 22.2 -2.051 -0.081
00:19 1006 29.71 835 24.66 -2.4 27.7 77 -5.8 21.5 -2.079 -0.082
00:20 1006 29.71 835 24.66 -2.2 28 76 -5.9 21.3 -2.022 -0.08
00:21 1006 29.71 835 24.66 -2.1 28.2 74 -6.1 21 -1.801 -0.071
00:22 1006 29.71 835 24.66 -1.9 28.6 74 -6 21.2 -1.665 -0.066
00:23 1006 29.71 835 24.66 -1.8 28.7 73 -6 21.2 -1.518 -0.06
00:24 1006 29.71 835 24.66 -1.8 28.9 73 -5.9 21.4 -1.428 -0.056
00:25 1006 29.71 835 24.66 -1.7 28.9 74 -5.8 21.6 -1.411 -0.056
00:26 1006 29.71 835 24.66 -1.8 28.8 77 -5.4 22.3 -1.422 -0.056
00:27 1006 29.71 835 24.66 -1.9 28.6 77 -5.4 22.3 -1.462 -0.058
00:28 1006 29.71 835 24.66 -2.1 28.3 78 -5.4 22.3 -1.631 -0.064
00:29 1006 29.71 835 24.66 -2.2 28 79 -5.4 22.2 -1.813 -0.071
00:30 1006 29.71 835 24.66 -2.3 27.8 79 -5.5 22.1 -1.92 -0.076
00:31 1006 29.71 835 24.66 -2.4 27.7 77 -5.8 21.5 -1.994 -0.079
00:32 1006 29.71 835 24.66 -2.3 27.8 76 -6 21.3 -1.954 -0.077
00:33 1006 29.71 835 24.66 -2.2 28 76 -6 21.2 -1.92 -0.076
00:34 1006 29.71 835 24.66 -2.2 28.1 75 -6 21.1 -1.852 -0.073
00:35 1006 29.71 835 24.66 -2.1 28.3 73 -6.2 20.8 -1.75 -0.069
00:36 1006 29.71 835 24.66 -2 28.5 70 -6.7 19.9 -1.671 -0.066
00:37 1006 29.71 835 24.66 -1.8 28.8 70 -6.5 20.3 -1.518 -0.06
00:38 1006 29.71 835 24.66 -1.7 29 69 -6.6 20.1 -1.399 -0.055
00:39 1006 29.71 835 24.66 -1.6 29.2 69 -6.5 20.3 -1.258 -0.05
00:40 1006 29.71 835 24.66 -1.5 29.3 69 -6.4 20.4 -1.184 -0.047
00:41 1006 29.71 835 24.66 -1.6 29.2 71 -6.2 20.8 -1.212 -0.048
00:42 1006 29.71 835 24.66 -1.6 29.1 71 -6.1 20.9 -1.257 -0.049
00:43 1006 29.71 835 24.66 -1.7 28.9 71 -6.3 20.7 -1.365 -0.054
00:44 1006 29.71 835 24.66 -1.8 28.7 72 -6.2 20.9 -1.461 -0.058
00:45 1006 29.71 835 24.66 -2 28.4 72 -6.3 20.6 -1.546 -0.061
00:46 1006 29.71 835 24.66 -2 28.4 71 -6.6 20 -1.637 -0.064
00:47 1006 29.71 835 24.66 -2 28.5 70 -6.7 19.9 -1.586 -0.062
00:48 1006 29.71 835 24.66 -1.9 28.5 71 -6.5 20.3 -1.501 -0.059
00:49 1006 29.71 835 24.66 -1.9 28.6 73 -6.1 21.1 -1.49 -0.059
00:50 1006 29.71 835 24.66 -1.9 28.6 74 -5.9 21.4 -1.393 -0.055
00:51 1006 29.71 835 24.66 -1.9 28.5 75 -5.8 21.5 -1.478 -0.058
00:52 1006 29.71 835 24.66 -2 28.4 73 -6.3 20.7 -1.495 -0.059
00:53 1006 29.71 835 24.66 -1.9 28.6 72 -6.3 20.6 -1.376 -0.054
00:54 1006 29.71 835 24.66 -1.8 28.8 75 -5.6 21.9 -1.32 -0.052
00:55 1006 29.71 835 24.66 -1.9 28.6 77 -5.4 22.4 -1.354 -0.053
00:56 1006 29.71 835 24.66 -2 28.4 78 -5.3 22.5 -1.461 -0.058
00:57 1006 29.71 835 24.66 -2.1 28.2 79 -5.3 22.5 -1.592 -0.063
00:58 1006 29.71 835 24.66 -2.2 28 80 -5.3 22.5 -1.711 -0.067
00:59 1006 29.71 835 24.66 -2.3 27.8 80 -5.2 22.6 -1.835 -0.072
01:00 1006 29.71 835 24.66 -2.4 27.6 81 -5.3 22.4 -1.937 -0.076
01:01 1006 29.71 835 24.66 -2.5 27.5 81 -5.4 22.3 -1.988 -0.078
01:02 1006 29.71 835 24.66 -2.5 27.5 81 -5.4 22.3 -2.028 -0.08
01:03 1006 29.71 835 24.66 -2.6 27.4 81 -5.4 22.2 -2.067 -0.081
01:04 1006 29.71 835 24.66 -2.6 27.4 82 -5.3 22.4 -2.09 -0.082
01:05 1006 29.71 835 24.66 -2.6 27.3 81 -5.5 22.1 -2.107 -0.083
01:06 1006 29.71 835 24.66 -2.7 27.2 81 -5.5 22.1 -2.181 -0.086
01:07 1006 29.71 835 24.66 -2.8 27 81 -5.6 21.9 -2.254 -0.089
01:08 1006 29.71 835 24.66 -2.8 26.9 81 -5.7 21.8 -2.294 -0.09
01:09 1006 29.71 835 24.66 -2.9 26.8 81 -5.8 21.6 -2.413 -0.095
01:10 1006 29.71 835 24.66 -3.1 26.5 82 -5.8 21.6 -2.565 -0.101
01:11 1006 29.71 835 24.66 -3.2 26.3 84 -5.4 22.2 -2.661 -0.105
01:12 1006 29.71 835 24.66 -3.1 26.4 84 -5.4 22.3 -2.582 -0.102
01:13 1006 29.71 835 24.66 -3 26.6 84 -5.3 22.5 -2.497 -0.098
01:14 1006 29.71 835 24.66 -2.9 26.8 84 -5.3 22.4 -2.401 -0.095
01:15 1006 29.71 835 24.66 -2.9 26.7 84 -5.3 22.4 -2.401 -0.095
01:16 1006 29.71 835 24.66 -2.9 26.7 84 -5.2 22.6 -2.474 -0.097
01:17 1006 29.71 835 24.66 -3 26.6 84 -5.4 22.4 -2.52 -0.099
01:18 1006 29.71 835 24.66 -3.2 26.3 82 -5.8 21.6 -2.684 -0.106
01:19 1006 29.71 835 24.66 -3.4 25.9 85 -5.6 22 -2.973 -0.117
01:20 1006 29.71 835 24.66 -3.5 25.6 87 -5.4 22.3 -3.069 -0.121
01:21 1006 29.71 835 24.66 -3.6 25.5 87 -5.5 22.2 -3.103 -0.122
01:22 1006 29.71 835 24.66 -3.6 25.5 88 -5.3 22.5 -3.057 -0.12
01:23 1006 29.71 835 24.66 -3.6 25.6 88 -5.2 22.6 -3.051 -0.12
01:24 1006 29.71 836 24.69 -3.6 25.5 88 -5.4 22.3 -3.057 -0.12
01:25 1006 29.71 836 24.69 -3.7 25.3 87 -5.6 22 -3.182 -0.125
01:26 1006 29.71 836 24.69 -3.8 25.2 89 -5.4 22.3 -3.323 -0.131
01:27 1006 29.71 836 24.69 -3.8 25.1 89 -5.3 22.4 -3.335 -0.131
01:28 1006 29.71 836 24.69 -3.8 25.2 90 -5.1 22.7 -3.328 -0.131
01:29 1006 29.71 836 24.69 -3.7 25.4 91 -5 23.1 -3.243 -0.128
01:30 1006 29.71 836 24.69 -3.6 25.5 92 -4.8 23.4 -3.147 -0.124
01:31 1006 29.71 836 24.69 -3.4 25.8 92 -4.6 23.7 -3.027 -0.119
01:32 1006 29.71 836 24.69 -3.3 26.1 92 -4.5 24 -2.812 -0.111
01:33 1006 29.71 836 24.69 -3.2 26.2 92 -4.4 24.1 -2.698 -0.106
01:34 1006 29.71 836 24.69 -3.1 26.5 90 -4.4 24 -2.59 -0.102
01:35 1007 29.74 836 24.69 -3 26.5 90 -4.5 23.9 -2.59 -0.102
01:36 1007 29.74 836 24.69 -3 26.6 90 -4.4 24.1 -2.562 -0.101
01:37 1007 29.74 836 24.69 -2.9 26.7 90 -4.4 24.2 -2.522 -0.099
01:38 1007 29.74 836 24.69 -2.9 26.8 90 -4.2 24.4 -2.448 -0.096
01:39 1007 29.74 836 24.69 -2.8 27 90 -4.2 24.4 -2.386 -0.094
01:40 1007 29.74 836 24.69 -2.7 27.1 89 -4.2 24.4 -2.312 -0.091
01:41 1007 29.74 836 24.69 -2.7 27.1 89 -4.2 24.4 -2.318 -0.091
01:42 1007 29.74 836 24.69 -2.7 27.1 89 -4.3 24.2 -2.346 -0.092
01:43 1007 29.74 836 24.69 -2.7 27.1 89 -4.3 24.3 -2.38 -0.094
01:44 1007 29.74 836 24.69 -2.8 27 90 -4.2 24.4 -2.397 -0.094
01:45 1007 29.74 836 24.69 -2.8 27 90 -4.1 24.6 -2.357 -0.093
01:46 1007 29.74 836 24.69 -2.7 27.1 91 -4 24.8 -2.3 -0.091
01:47 1007 29.74 836 24.69 -2.6 27.3 91 -3.9 25 -2.181 -0.086
01:48 1007 29.74 836 24.69 -2.6 27.4 91 -3.8 25.1 -2.073 -0.082
01:49 1007 29.74 836 24.69 -2.5 27.6 90 -3.8 25.1 -1.988 -0.078
01:50 1007 29.74 836 24.69 -2.4 27.6 90 -3.9 25 -1.932 -0.076
01:51 1007 29.74 836 24.69 -2.4 27.7 88 -4.1 24.6 -1.96 -0.077
01:52 1007 29.74 836 24.69 -2.4 27.6 88 -4.1 24.6 -1.988 -0.078
01:53 1007 29.74 836 24.69 -2.5 27.5 89 -4.1 24.6 -2.067 -0.081
01:54 1007 29.74 836 24.69 -2.5 27.6 89 -4.1 24.7 -2.05 -0.081
01:55 1007 29.74 836 24.69 -2.4 27.6 89 -4 24.8 -2.039 -0.08
01:56 1007 29.74 836 24.69 -2.4 27.7 88 -4 24.7 -1.977 -0.078
01:57 1007 29.74 836 24.69 -2.4 27.7 88 -4.2 24.5 -1.971 -0.078
01:58 1007 29.74 836 24.69 -2.5 27.6 88 -4.1 24.5 -1.999 -0.079
01:59 1007 29.74 836 24.69 -2.4 27.7 75 -6.3 20.7 -2.039 -0.08
02:00 1007 29.74 836 24.69 -1.9 28.5 73 -6.1 21 -1.767 -0.07
02:01 1007 29.74 836 24.69 -1.6 29.1 69 -6.6 20.2 -1.466 -0.058
02:02 1007 29.74 836 24.69 -1.4 29.5 72 -5.9 21.4 -1.166 -0.046
02:03 1007 29.74 836 24.69 -1.4 29.5 72 -5.9 21.4 -1.081 -0.043
02:04 1007 29.74 836 24.69 -1.4 29.4 73 -5.7 21.8 -1.053 -0.041
02:05 1007 29.74 836 24.69 -1.5 29.4 70 -6.3 20.6 -1.081 -0.043
02:06 1007 29.74 836 24.69 -1.4 29.4 67 -6.7 19.9 -1.121 -0.044
02:07 1007 29.74 836 24.69 -1.4 29.5 66 -6.9 19.6 -1.07 -0.042
02:08 1007 29.74 836 24.69 -1.4 29.5 65 -7.2 19.1 -1.036 -0.041
02:09 1007 29.74 836 24.69 -1.3 29.6 65 -7 19.4 -.934 -0.037
02:10 1007 29.74 836 24.69 -1.3 29.7 64 -7.3 18.9 -.928 -0.037
02:11 1007 29.74 836 24.69 -1.3 29.7 66 -6.9 19.6 -.871 -0.034
02:12 1007 29.74 836 24.69 -1.3 29.7 64 -7.3 18.9 -.9 -0.035
02:13 1007 29.74 836 24.69 -1.2 29.8 66 -6.8 19.8 -.798 -0.031
02:14 1007 29.74 836 24.69 -1.3 29.7 65 -7.1 19.3 -.86 -0.034
02:15 1007 29.74 836 24.69 -1.3 29.6 65 -7.2 19.1 -.894 -0.035
02:16 1007 29.74 836 24.69 -1.3 29.6 67 -6.7 19.9 -.9 -0.035
02:17 1007 29.74 836 24.69 -1.4 29.5 69 -6.4 20.6 -.945 -0.037
02:18 1007 29.74 836 24.69 -1.5 29.4 71 -6 21.1 -1.002 -0.039
02:19 1007 29.74 836 24.69 -1.6 29.2 71 -6.2 20.8 -1.16 -0.046
02:20 1007 29.74 836 24.69 -1.7 28.9 71 -6.4 20.6 -1.302 -0.051
02:21 1007 29.74 836 24.69 -1.8 28.7 70 -6.6 20.2 -1.415 -0.056
02:22 1007 29.74 836 24.69 -1.9 28.6 71 -6.4 20.4 -1.449 -0.057
02:23 1007 29.74 836 24.69 -1.9 28.5 69 -6.8 19.8 -1.517 -0.06
02:24 1007 29.74 836 24.69 -1.9 28.6 66 -7.3 18.8 -1.495 -0.059
02:25 1007 29.74 836 24.69 -1.7 28.9 61 -8.3 17.1 -1.37 -0.054
02:26 1007 29.74 836 24.69 -1.5 29.3 63 -7.7 18.2 -1.109 -0.044
02:27 1007 29.74 836 24.69 -1.3 29.6 64 -7.3 18.9 -.939 -0.037
02:28 1007 29.74 836 24.69 -1.3 29.7 64 -7.3 18.9 -.9 -0.035
02:29 1007 29.74 836 24.69 -1.3 29.7 63 -7.4 18.7 -.877 -0.035
02:30 1007 29.74 836 24.69 -1.3 29.7 63 -7.4 18.6 -.888 -0.035
02:31 1007 29.74 836 24.69 -1.3 29.7 61 -7.8 18 -.894 -0.035
02:32 1007 29.74 836 24.69 -1.3 29.7 63 -7.4 18.6 -.866 -0.034
02:33 1007 29.74 836 24.69 -1.2 29.8 63 -7.4 18.7 -.843 -0.033
02:34 1007 29.74 836 24.69 -1.3 29.7 60 -8 17.5 -.849 -0.033
02:35 1007 29.74 836 24.69 -1.1 30 60 -7.9 17.8 -.764 -0.03
02:36 1007 29.74 836 24.69 -1 30.2 60 -7.8 18 -.633 -0.025
02:37 1007 29.74 836 24.69 -0.9 30.3 61 -7.6 18.3 -.503 -0.02
02:38 1007 29.74 836 24.69 -0.9 30.3 60 -7.7 18.2 -.497 -0.02
02:39 1007 29.74 836 24.69 -0.9 30.3 58 -8.2 17.2 -.475 -0.019
02:40 1007 29.74 836 24.69 -0.9 30.4 60 -7.6 18.3 -.412 -0.016
02:41 1007 29.74 836 24.69 -0.9 30.5 59 -8 17.7 -.395 -0.016
02:42 1007 29.74 836 24.69 -0.8 30.5 59 -7.9 17.7 -.435 -0.017
02:43 1007 29.74 836 24.69 -0.8 30.5 61 -7.5 18.5 -.429 -0.017
02:44 1007 29.74 836 24.69 -0.8 30.6 55 -8.7 16.4 -.378 -0.015
02:45 1007 29.74 836 24.69 -0.7 30.8 59 -7.8 18 -.225 -0.009
02:46 1007 29.74 836 24.69 -0.7 30.8 58 -7.8 17.9 -.214 -0.008
02:47 1007 29.74 836 24.69 -0.7 30.7 58 -7.9 17.7 -.276 -0.011
02:48 1007 29.74 836 24.69 -0.8 30.6 58 -8.1 17.5 -.322 -0.013
02:49 1007 29.74 836 24.69 -0.8 30.6 60 -7.6 18.4 -.322 -0.013
02:50 1007 29.74 836 24.69 -0.8 30.5 58 -8.1 17.5 -.401 -0.016
02:51 1007 29.74 836 24.69 -0.8 30.5 58 -8.1 17.5 -.424 -0.017
02:52 1007 29.74 837 24.72 -0.8 30.6 59 -7.9 17.8 -.378 -0.015
02:53 1008 29.77 837 24.72 -0.8 30.5 63 -7 19.3 -.424 -0.017
02:54 1008 29.77 837 24.72 -1 30.2 63 -7.2 19.1 -.582 -0.023
02:55 1008 29.77 837 24.72 -1.1 30 64 -7 19.3 -.747 -0.029
02:56 1008 29.77 837 24.72 -1.3 29.7 65 -7 19.4 -.832 -0.033
02:57 1008 29.77 837 24.72 -1.4 29.5 67 -6.8 19.8 -.962 -0.038
02:58 1008 29.77 837 24.72 -1.5 29.4 67 -6.8 19.7 -1.019 -0.04
02:59 1008 29.77 837 24.72 -1.5 29.3 67 -6.8 19.7 -1.092 -0.043
03:00 1008 29.77 837 24.72 -1.6 29.1 69 -6.7 20 -1.155 -0.045
03:01 1008 29.77 837 24.72 -1.7 29 71 -6.3 20.6 -1.234 -0.049
03:02 1008 29.77 837 24.72 -1.8 28.8 73 -6.1 21.1 -1.291 -0.051
03:03 1008 29.77 837 24.72 -1.8 28.8 74 -5.8 21.6 -1.313 -0.052
03:04 1008 29.77 837 24.72 -1.8 28.8 75 -5.7 21.8 -1.319 -0.052
03:05 1008 29.77 837 24.72 -1.8 28.8 76 -5.5 22.2 -1.319 -0.052
03:06 1008 29.77 837 24.72 -1.8 28.7 76 -5.5 22.1 -1.364 -0.054
03:07 1008 29.77 837 24.72 -1.8 28.8 77 -5.3 22.4 -1.336 -0.053
03:08 1008 29.77 837 24.72 -1.8 28.8 78 -5.2 22.7 -1.343 -0.053
03:09 1008 29.77 837 24.72 -1.8 28.8 78 -5.1 22.8 -1.309 -0.052
03:10 1008 29.77 837 24.72 -1.8 28.8 78 -5.1 22.9 -1.298 -0.051
03:11 1008 29.77 837 24.72 -1.8 28.8 79 -4.9 23.3 -1.327 -0.052
03:12 1008 29.77 837 24.72 -1.8 28.8 80 -4.8 23.3 -1.327 -0.052
03:13 1008 29.77 837 24.72 -1.8 28.7 80 -4.9 23.3 -1.356 -0.053
03:14 1008 29.77 837 24.72 -1.8 28.7 81 -4.7 23.5 -1.379 -0.054
03:15 1008 29.77 837 24.72 -1.9 28.7 81 -4.7 23.5 -1.401 -0.055
03:16 1008 29.77 837 24.72 -1.9 28.6 81 -4.7 23.5 -1.436 -0.057
03:17 1008 29.77 837 24.72 -1.9 28.6 81 -4.7 23.5 -1.425 -0.056
03:18 1008 29.77 837 24.72 -1.9 28.6 81 -4.7 23.6 -1.425 -0.056
03:19 1008 29.77 837 24.72 -1.9 28.6 82 -4.7 23.6 -1.47 -0.058
03:20 1008 29.77 837 24.72 -1.9 28.5 81 -4.7 23.5 -1.493 -0.059
03:21 1008 29.77 837 24.72 -2 28.4 82 -4.7 23.6 -1.544 -0.061
03:22 1008 29.77 837 24.72 -2 28.3 80 -5 23 -1.55 -0.061
03:23 1008 29.77 837 24.72 -2 28.4 79 -5.1 22.9 -1.556 -0.061
03:24 1008 29.77 837 24.72 -2 28.5 79 -5.1 22.9 -1.556 -0.061
03:25 1008 29.77 837 24.72 -2 28.5 80 -4.9 23.1 -1.545 -0.061
03:26 1008 29.77 837 24.72 -2 28.4 80 -5 23 -1.562 -0.061
03:27 1008 29.77 837 24.72 -2 28.4 80 -4.9 23.1 -1.585 -0.062
03:28 1008 29.77 837 24.72 -2.1 28.2 81 -5 23.1 -1.664 -0.066
03:29 1008 29.77 837 24.72 -2.1 28.2 82 -4.7 23.5 -1.687 -0.066
03:30 1008 29.77 837 24.72 -2.2 28.1 83 -4.7 23.6 -1.726 -0.068
03:31 1008 29.77 837 24.72 -2.2 28 84 -4.6 23.7 -1.727 -0.068
03:32 1008 29.77 838 24.75 -2.2 28 85 -4.5 23.9 -1.778 -0.07
03:33 1008 29.77 838 24.75 -2.3 27.9 85 -4.5 24 -1.783 -0.07
03:34 1008 29.77 838 24.75 -2.3 27.9 85 -4.4 24 -1.801 -0.071
03:35 1008 29.77 838 24.75 -2.3 27.8 85 -4.5 23.9 -1.823 -0.072
03:36 1008 29.77 838 24.75 -2.3 27.8 85 -4.5 23.9 -1.834 -0.072
03:37 1008 29.77 837 24.72 -2.4 27.8 85 -4.5 23.9 -1.869 -0.074
03:38 1008 29.77 837 24.72 -2.3 27.9 85 -4.4 24 -1.863 -0.073
03:39 1008 29.77 837 24.72 -2.3 27.8 85 -4.5 23.9 -1.846 -0.073
03:40 1008 29.77 837 24.72 -2.3 27.8 85 -4.6 23.7 -1.863 -0.073
03:41 1008 29.77 837 24.72 -2.3 27.8 84 -4.6 23.7 -1.852 -0.073
03:42 1008 29.77 837 24.72 -2.3 27.8 84 -4.6 23.7 -1.857 -0.073
03:43 1008 29.77 837 24.72 -2.3 27.9 85 -4.6 23.8 -1.812 -0.071
03:44 1008 29.77 837 24.72 -2.3 27.8 85 -4.5 23.8 -1.835 -0.072
03:45 1008 29.77 837 24.72 -2.3 27.9 85 -4.5 23.9 -1.835 -0.072
03:46 1008 29.77 838 24.75 -2.3 27.8 85 -4.5 23.9 -1.863 -0.073
03:47 1008 29.77 838 24.75 -2.3 27.8 85 -4.5 23.9 -1.863 -0.073
03:48 1008 29.77 838 24.75 -2.4 27.7 85 -4.5 23.9 -1.863 -0.073
03:49 1008 29.77 838 24.75 -2.4 27.7 85 -4.5 23.9 -1.903 -0.075
03:50 1008 29.77 838 24.75 -2.4 27.7 85 -4.5 23.9 -1.897 -0.075
03:51 1008 29.77 838 24.75 -2.4 27.7 86 -4.5 23.9 -1.926 -0.076
03:52 1008 29.77 838 24.75 -2.4 27.7 86 -4.5 23.9 -1.931 -0.076
03:53 1008 29.77 838 24.75 -2.4 27.7 86 -4.5 24 -1.931 -0.076
03:54 1008 29.77 838 24.75 -2.4 27.6 86 -4.5 23.9 -1.914 -0.075
03:55 1009 29.8 838 24.75 -2.4 27.6 86 -4.5 23.9 -1.937 -0.076
03:56 1009 29.8 838 24.75 -2.4 27.6 86 -4.5 23.9 -1.926 -0.076
03:57 1009 29.8 838 24.75 -2.4 27.6 86 -4.5 24 -1.943 -0.076
03:58 1009 29.8 838 24.75 -2.5 27.6 86 -4.5 24 -1.988 -0.078
03:59 1009 29.8 838 24.75 -2.5 27.5 86 -4.5 24 -2.045 -0.081
04:00 1009 29.8 838 24.75 -2.5 27.4 87 -4.5 24 -2.05 -0.081
04:01 1009 29.8 838 24.75 -2.6 27.4 87 -4.5 24 -2.118 -0.083
04:02 1009 29.8 838 24.75 -2.6 27.3 87 -4.4 24 -2.13 -0.084
04:03 1009 29.8 838 24.75 -2.6 27.3 88 -4.4 24.1 -2.169 -0.085
04:04 1009 29.8 838 24.75 -2.6 27.3 88 -4.4 24.1 -2.141 -0.084
04:05 1009 29.8 838 24.75 -2.7 27.2 88 -4.4 24.1 -2.164 -0.085
04:06 1009 29.8 838 24.75 -2.7 27.2 88 -4.4 24.1 -2.192 -0.086
04:07 1009 29.8 838 24.75 -2.7 27.2 88 -4.4 24.1 -2.175 -0.086
04:08 1009 29.8 838 24.75 -2.7 27.2 88 -4.4 24 -2.198 -0.087
04:09 1009 29.8 838 24.75 -2.7 27.2 88 -4.4 24.1 -2.215 -0.087
04:10 1009 29.8 838 24.75 -2.7 27.1 88 -4.4 24.1 -2.215 -0.087
04:11 1009 29.8 838 24.75 -2.7 27.1 88 -4.4 24.1 -2.22 -0.087
04:12 1009 29.8 838 24.75 -2.7 27.1 89 -4.4 24.2 -2.26 -0.089
04:13 1009 29.8 838 24.75 -2.7 27.1 89 -4.3 24.3 -2.266 -0.089
04:14 1009 29.8 838 24.75 -2.7 27.1 89 -4.3 24.2 -2.254 -0.089
04:15 1009 29.8 838 24.75 -2.7 27.1 89 -4.3 24.3 -2.266 -0.089
04:16 1009 29.8 838 24.75 -2.7 27.1 89 -4.3 24.3 -2.243 -0.088
04:17 1009 29.8 838 24.75 -2.7 27.2 89 -4.3 24.3 -2.198 -0.087
04:18 1009 29.8 838 24.75 -2.7 27.2 88 -4.3 24.2 -2.225 -0.088
04:19 1009 29.8 838 24.75 -2.6 27.3 88 -4.3 24.2 -2.196 -0.086
04:20 1009 29.8 838 24.75 -2.6 27.3 88 -4.4 24.2 -2.168 -0.085
04:21 1009 29.8 838 24.75 -2.6 27.4 88 -4.3 24.3 -2.18 -0.086
04:22 1009 29.8 838 24.75 -2.7 27.2 88 -4.4 24 -2.219 -0.087
04:23 1009 29.8 838 24.75 -2.7 27.1 87 -4.6 23.8 -2.321 -0.091
04:24 1009 29.8 838 24.75 -2.8 27 87 -4.7 23.6 -2.372 -0.093
04:25 1009 29.8 838 24.75 -2.9 26.8 87 -4.7 23.5 -2.497 -0.098
04:26 1009 29.8 838 24.75 -2.9 26.7 88 -4.7 23.5 -2.537 -0.1
04:27 1009 29.8 838 24.75 -2.9 26.7 88 -4.7 23.5 -2.526 -0.099
04:28 1009 29.8 838 24.75 -2.9 26.8 87 -4.8 23.4 -2.475 -0.097
04:29 1009 29.8 838 24.75 -2.9 26.7 86 -4.9 23.2 -2.503 -0.099
04:30 1009 29.8 838 24.75 -3 26.6 88 -4.7 23.6 -2.581 -0.102
04:31 1009 29.8 838 24.75 -3 26.6 89 -4.6 23.6 -2.598 -0.102
04:32 1009 29.8 838 24.75 -3 26.6 89 -4.6 23.7 -2.598 -0.102
04:33 1009 29.8 838 24.75 -3 26.6 89 -4.5 23.9 -2.569 -0.101
04:34 1009 29.8 838 24.75 -3 26.7 89 -4.5 23.9 -2.506 -0.099
04:35 1009 29.8 838 24.75 -2.9 26.8 89 -4.5 24 -2.467 -0.097
04:36 1009 29.8 838 24.75 -2.9 26.8 89 -4.5 23.9 -2.445 -0.096
04:37 1009 29.8 838 24.75 -2.8 26.9 88 -4.5 23.9 -2.411 -0.095
04:38 1009 29.8 838 24.75 -2.8 26.9 88 -4.5 23.8 -2.36 -0.093
04:39 1009 29.8 838 24.75 -2.8 27 88 -4.5 23.9 -2.36 -0.093
04:40 1009 29.8 838 24.75 -2.8 26.9 88 -4.5 23.8 -2.338 -0.092
04:41 1009 29.8 838 24.75 -2.8 27 88 -4.5 23.9 -2.326 -0.092
04:42 1009 29.8 838 24.75 -2.8 27 88 -4.5 23.9 -2.389 -0.094
04:43 1009 29.8 838 24.75 -2.8 26.9 88 -4.5 23.8 -2.434 -0.096
04:44 1009 29.8 838 24.75 -2.9 26.8 88 -4.7 23.6 -2.456 -0.097
04:45 1009 29.8 838 24.75 -2.9 26.7 88 -4.7 23.5 -2.507 -0.099
04:46 1009 29.8 838 24.75 -3 26.7 88 -4.6 23.6 -2.563 -0.101
04:47 1009 29.8 838 24.75 -2.9 26.7 88 -4.6 23.7 -2.552 -0.1
04:48 1009 29.8 838 24.75 -2.9 26.8 88 -4.6 23.7 -2.524 -0.099
04:49 1009 29.8 838 24.75 -2.9 26.8 88 -4.6 23.7 -2.547 -0.1
04:50 1009 29.8 838 24.75 -2.9 26.8 88 -4.6 23.8 -2.478 -0.098
04:51 1009 29.8 838 24.75 -2.9 26.7 88 -4.6 23.6 -2.529 -0.1
04:52 1009 29.8 838 24.75 -2.9 26.7 88 -4.7 23.6 -2.518 -0.099
04:53 1009 29.8 838 24.75 -2.9 26.7 88 -4.7 23.6 -2.54 -0.1
04:54 1009 29.8 838 24.75 -3 26.6 87 -4.9 23.1 -2.619 -0.103
04:55 1009 29.8 838 24.75 -3.2 26.2 87 -5.1 22.8 -2.817 -0.111
04:56 1009 29.8 838 24.75 -3.4 26 87 -5.2 22.7 -2.941 -0.116
04:57 1009 29.8 838 24.75 -3.4 25.8 87 -5.3 22.5 -3.049 -0.12
04:58 1009 29.8 838 24.75 -3.5 25.7 88 -5.2 22.7 -3.1 -0.122
04:59 1009 29.8 838 24.75 -3.5 25.6 90 -5 23 -3.111 -0.122
05:00 1009 29.8 838 24.75 -3.5 25.6 90 -5 23 -3.133 -0.123
05:01 1009 29.8 838 24.75 -3.6 25.6 90 -5 23 -3.105 -0.122
05:02 1009 29.8 838 24.75 -3.6 25.6 90 -5 23 -3.15 -0.124
05:03 1009 29.8 838 24.75 -3.6 25.6 90 -4.9 23.1 -3.139 -0.124
05:04 1009 29.8 838 24.75 -3.6 25.6 91 -4.8 23.4 -3.122 -0.123
05:05 1009 29.8 838 24.75 -3.5 25.7 92 -4.7 23.6 -3.059 -0.12
05:06 1009 29.8 838 24.75 -3.4 25.8 92 -4.6 23.7 -3.003 -0.118
05:07 1009 29.8 838 24.75 -3.4 26 91 -4.6 23.7 -2.957 -0.116
05:08 1009 29.8 838 24.75 -3.3 26 90 -4.7 23.5 -2.94 -0.116
05:09 1009 29.8 838 24.75 -3.3 26 90 -4.8 23.4 -2.946 -0.116
05:10 1009 29.8 838 24.75 -3.3 26 89 -4.9 23.2 -2.946 -0.116
05:11 1009 29.8 838 24.75 -3.3 26 89 -4.9 23.1 -2.957 -0.116
05:12 1009 29.8 838 24.75 -3.3 26 89 -4.9 23.2 -2.991 -0.118
05:13 1009 29.8 838 24.75 -3.5 25.8 87 -5.3 22.5 -3.053 -0.12
05:14 1009 29.8 838 24.75 -3.6 25.6 86 -5.6 22 -3.172 -0.125
05:15 1009 29.8 838 24.75 -3.6 25.5 85 -5.8 21.5 -3.274 -0.129
05:16 1009 29.8 838 24.75 -3.7 25.4 85 -5.8 21.6 -3.376 -0.133
05:17 1009 29.8 838 24.75 -3.7 25.4 86 -5.7 21.7 -3.359 -0.132
05:18 1009 29.8 838 24.75 -3.6 25.5 86 -5.6 22 -3.319 -0.131
05:19 1009 29.8 838 24.75 -3.6 25.6 86 -5.6 22 -3.234 -0.127
05:20 1009 29.8 838 24.75 -3.5 25.7 86 -5.6 22 -3.143 -0.124
05:21 1009 29.8 838 24.75 -3.4 25.9 85 -5.6 22 -3.109 -0.122
05:22 1009 29.8 838 24.75 -3.3 26.1 84 -5.6 22 -3.047 -0.12
05:23 1009 29.8 838 24.75 -3.2 26.3 84 -5.5 22 -2.917 -0.115
05:24 1009 29.8 838 24.75 -3 26.5 82 -5.6 21.8 -2.86 -0.113
05:25 1009 29.8 838 24.75 -2.9 26.7 82 -5.6 21.9 -2.747 -0.108
05:26 1009 29.8 838 24.75 -2.9 26.8 82 -5.6 22 -2.679 -0.105
05:27 1009 29.8 838 24.75 -2.9 26.7 82 -5.5 22.1 -2.696 -0.106
05:28 1009 29.8 838 24.75 -3 26.6 82 -5.6 21.9 -2.718 -0.107
05:29 1009 29.8 838 24.75 -3 26.6 83 -5.6 22 -2.752 -0.108
05:30 1009 29.8 838 24.75 -3.1 26.4 83 -5.6 21.9 -2.747 -0.108
05:31 1009 29.8 838 24.75 -3.2 26.3 83 -5.7 21.7 -2.832 -0.111
05:32 1009 29.8 838 24.75 -3.3 26.1 82 -5.9 21.3 -2.917 -0.115
05:33 1009 29.8 838 24.75 -3.4 25.8 80 -6.3 20.6 -3.086 -0.121
05:34 1009 29.8 838 24.75 -3.8 25.2 82 -6.5 20.3 -3.37 -0.133
05:35 1009 29.8 838 24.75 -4.1 24.6 83 -6.7 20 -3.687 -0.145
05:36 1009 29.8 838 24.75 -4.4 24.1 84 -6.8 19.8 -3.931 -0.155
05:37 1009 29.8 838 24.75 -4.5 23.9 84 -6.7 19.9 -4.1 -0.161
05:38 1009 29.8 838 24.75 -4.6 23.7 86 -6.6 20.1 -4.208 -0.166
05:39 1009 29.8 838 24.75 -4.6 23.7 86 -6.6 20.1 -4.231 -0.167
05:40 1009 29.8 838 24.75 -4.6 23.7 86 -6.7 19.9 -4.282 -0.169
05:41 1009 29.8 838 24.75 -4.7 23.5 85 -6.9 19.5 -4.378 -0.172
05:42 1009 29.8 838 24.75 -4.8 23.3 86 -6.8 19.7 -4.503 -0.177
05:43 1009 29.8 838 24.75 -4.9 23.2 86 -6.8 19.7 -4.486 -0.177
05:44 1009 29.8 838 24.75 -4.8 23.3 88 -6.5 20.3 -4.395 -0.173
05:45 1009 29.8 838 24.75 -4.5 23.9 87 -6.4 20.5 -4.214 -0.166
05:46 1009 29.8 839 24.78 -4.3 24.2 86 -6.3 20.6 -4.01 -0.158
05:47 1009 29.8 839 24.78 -4.2 24.5 84 -6.4 20.5 -3.93 -0.155
05:48 1009 29.8 839 24.78 -4.1 24.5 81 -6.9 19.5 -3.925 -0.155
05:49 1009 29.8 839 24.78 -4.5 23.9 76 -8.1 17.4 -4.214 -0.166
05:50 1009 29.8 839 24.78 -4.9 23.2 86 -6.9 19.5 -4.61 -0.181
05:51 1009 29.8 839 24.78 -4.9 23.2 81 -7.6 18.3 -4.605 -0.181
05:52 1009 29.8 839 24.78 -5.1 22.8 86 -7.1 19.2 -4.746 -0.187
05:53 1009 29.8 839 24.78 -5 23 89 -6.6 20.2 -4.61 -0.181
05:54 1009 29.8 839 24.78 -4.7 23.6 87 -6.5 20.3 -4.333 -0.171
05:55 1009 29.8 839 24.78 -4.4 24.2 86 -6.4 20.5 -4.095 -0.161
05:56 1009 29.8 839 24.78 -4.3 24.3 80 -7.2 19 -4.038 -0.159
05:57 1009 29.8 839 24.78 -4.8 23.4 80 -7.8 18 -4.531 -0.178
05:58 1009 29.8 839 24.78 -5.1 22.8 88 -6.8 19.7 -4.741 -0.187
05:59 1009 29.8 839 24.78 -4.9 23.1 87 -6.8 19.8 -4.582 -0.18
06:00 1009 29.8 839 24.78 -4.8 23.3 88 -6.5 20.3 -4.486 -0.177
06:01 1009 29.8 839 24.78 -4.7 23.5 87 -6.6 20.1 -4.321 -0.17
06:02 1009 29.8 839 24.78 -4.6 23.8 86 -6.5 20.2 -4.202 -0.165
06:03 1009 29.8 839 24.78 -4.5 23.8 84 -6.8 19.7 -4.191 -0.165
06:04 1009 29.8 839 24.78 -4.6 23.7 85 -6.7 19.9 -4.31 -0.17
06:05 1009 29.8 839 24.78 -4.8 23.3 81 -7.6 18.3 -4.537 -0.179
06:06 1009 29.8 839 24.78 -5.2 22.7 85 -7.3 18.8 -4.826 -0.19
06:07 1009 29.8 839 24.78 -5.6 22 82 -8.2 17.2 -5.143 -0.202
06:08 1009 29.8 839 24.78 -5.9 21.4 90 -7.3 18.9 -5.443 -0.214
06:09 1009 29.8 839 24.78 -5.7 21.8 89 -7.2 19.1 -5.307 -0.209
06:10 1009 29.8 839 24.78 -5.6 21.9 88 -7.3 18.9 -5.318 -0.209
06:11 1009 29.8 839 24.78 -5.6 22 87 -7.4 18.6 -5.29 -0.208
06:12 1009 29.8 839 24.78 -5.7 21.7 84 -8.1 17.5 -5.5 -0.217
06:13 1009 29.8 839 24.78 -5.9 21.4 88 -7.5 18.4 -5.619 -0.221
06:14 1009 29.8 839 24.78 -5.9 21.4 88 -7.7 18.2 -5.63 -0.222
06:15 1009 29.8 839 24.78 -5.8 21.5 88 -7.5 18.5 -5.517 -0.217
06:16 1009 29.8 839 24.78 -6.1 21 77 -9.6 14.8 -5.806 -0.229
06:17 1009 29.8 839 24.78 -6.7 19.9 86 -8.8 16.2 -6.327 -0.249
06:18 1009 29.8 839 24.78 -6.9 19.6 89 -8.4 16.9 -6.541 -0.258
06:19 1009 29.8 839 24.78 -6.7 19.9 86 -8.6 16.5 -6.405 -0.252
06:20 1009 29.8 839 24.78 -6.7 19.9 87 -8.5 16.7 -6.479 -0.255
06:21 1009 29.8 839 24.78 -6.8 19.7 82 -9.4 15 -6.591 -0.259
06:22 1009 29.8 839 24.78 -7.3 18.8 83 -9.8 14.4 -7.12 -0.28
06:23 1009 29.8 839 24.78 -7.6 18.4 88 -9.3 15.3 -7.29 -0.287
06:24 1009 29.8 839 24.78 -7.7 18.2 83 -10.2 13.7 -7.41 -0.292
06:25 1009 29.8 839 24.78 -8 17.5 87 -9.8 14.3 -7.7 -0.303
06:26 1009 29.8 839 24.78 -8.2 17.3 87 -10 14 -7.77 -0.306
06:27 1009 29.8 839 24.78 -8.3 17.1 87 -10.1 13.9 -7.89 -0.311
06:28 1009 29.8 839 24.78 -8.3 17.1 90 -9.6 14.7 -7.89 -0.311
06:29 1009 29.8 839 24.78 -8.2 17.2 89 -9.8 14.4 -7.85 -0.309
06:30 1009 29.8 839 24.78 -8.2 17.3 90 -9.5 14.9 -7.81 -0.307
06:31 1009 29.8 839 24.78 -8.1 17.4 89 -9.6 14.7 -7.72 -0.304
06:32 1009 29.8 839 24.78 -8.1 17.4 88 -9.8 14.4 -7.73 -0.304
06:33 1010 29.83 839 24.78 -8.3 17.2 86 -10.2 13.6 -7.85 -0.309
06:34 1010 29.83 839 24.78 -8.5 16.8 88 -10.2 13.7 -8.04 -0.317
06:35 1010 29.83 839 24.78 -8.5 16.8 90 -9.9 14.2 -8.04 -0.317
06:36 1009 29.8 839 24.78 -8.3 17.1 93 -9.2 15.4 -7.84 -0.309
06:37 1009 29.8 839 24.78 -8.2 17.3 86 -10.1 13.9 -7.74 -0.305
06:38 1010 29.83 839 24.78 -8.4 16.9 87 -10.2 13.7 -8.01 -0.315
06:39 1010 29.83 839 24.78 -8.5 16.8 89 -10 14 -8.04 -0.317
06:40 1010 29.83 839 24.78 -8.3 17 90 -9.8 14.4 -7.92 -0.312
06:41 1010 29.83 839 24.78 -8.1 17.5 91 -9.3 15.2 -7.7 -0.303
06:42 1010 29.83 839 24.78 -7.7 18.1 90 -9 15.8 -7.32 -0.288
06:43 1010 29.83 839 24.78 -7.5 18.6 89 -9 15.8 -7.06 -0.278
06:44 1010 29.83 839 24.78 -7.3 19 88 -8.9 15.9 -6.908 -0.272
06:45 1010 29.83 839 24.78 -7.1 19.2 88 -8.8 16.1 -6.771 -0.267
06:46 1010 29.83 839 24.78 -7.2 19.1 84 -9.4 15.1 -6.777 -0.267
06:47 1010 29.83 839 24.78 -7.3 18.8 86 -9.2 15.4 -6.941 -0.273
06:48 1010 29.83 839 24.78 -7.3 18.9 88 -9 15.9 -6.89 -0.271
06:49 1010 29.83 839 24.78 -7.1 19.2 86 -9 15.7 -6.765 -0.266
06:50 1010 29.83 839 24.78 -7.1 19.2 86 -9.1 15.6 -6.771 -0.267
06:51 1010 29.83 839 24.78 -7.1 19.2 87 -8.9 16 -6.748 -0.266
06:52 1010 29.83 839 24.78 -6.9 19.6 87 -8.7 16.3 -6.527 -0.257
06:53 1010 29.83 839 24.78 -6.6 20.1 86 -8.6 16.6 -6.294 -0.248
06:54 1010 29.83 839 24.78 -6.5 20.3 83 -9 15.9 -6.198 -0.244
06:55 1010 29.83 839 24.78 -6.8 19.8 83 -9.2 15.5 -6.436 -0.253
06:56 1010 29.83 839 24.78 -7 19.5 84 -9.3 15.3 -6.594 -0.26
06:57 1010 29.83 839 24.78 -7.1 19.2 85 -9.3 15.3 -6.753 -0.266
06:58 1010 29.83 839 24.78 -7.2 19 86 -9.2 15.4 -6.889 -0.271
06:59 1010 29.83 839 24.78 -7.3 18.9 86 -9.3 15.3 -6.9 -0.272
07:00 1010 29.83 839 24.78 -7.3 18.8 85 -9.4 15.1 -6.928 -0.273
07:01 1010 29.83 839 24.78 -7.4 18.7 86 -9.4 15.1 -6.996 -0.275
07:02 1010 29.83 839 24.78 -7.5 18.6 86 -9.5 14.9 -7.06 -0.278
07:03 1010 29.83 839 24.78 -7.6 18.4 84 -9.8 14.4 -7.17 -0.282
07:04 1010 29.83 839 24.78 -7.7 18.2 88 -9.3 15.2 -7.25 -0.285
07:05 1010 29.83 839 24.78 -7.4 18.8 88 -9 15.7 -6.968 -0.274
07:06 1010 29.83 839 24.78 -7 19.4 87 -8.8 16.2 -6.645 -0.262
07:07 1010 29.83 839 24.78 -6.9 19.5 83 -9.4 15.1 -6.588 -0.259
07:08 1010 29.83 839 24.78 -7.1 19.2 81 -9.8 14.3 -6.78 -0.267
07:09 1010 29.83 839 24.78 -7.4 18.7 83 -9.9 14.3 -7.06 -0.278
07:10 1010 29.83 839 24.78 -7.5 18.5 83 -9.8 14.3 -7.11 -0.28
07:11 1010 29.83 839 24.78 -7.5 18.6 84 -9.7 14.5 -7.08 -0.279
07:12 1010 29.83 839 24.78 -7.4 18.8 83 -9.7 14.5 -7.02 -0.276
07:13 1010 29.83 839 24.78 -7.4 18.8 83 -9.8 14.3 -7.01 -0.276
07:14 1010 29.83 839 24.78 -7.4 18.7 81 -10.1 13.9 -7.05 -0.278
07:15 1010 29.83 839 24.78 -7.5 18.5 81 -10.3 13.5 -7.13 -0.281
07:16 1010 29.83 839 24.78 -7.6 18.4 82 -10.1 13.8 -7.2 -0.283
07:17 1010 29.83 839 24.78 -7.3 18.8 87 -9.2 15.4 -7.06 -0.278
07:18 1010 29.83 839 24.78 -6.8 19.8 83 -9.3 15.3 -6.637 -0.261
07:19 1010 29.83 839 24.78 -6.7 19.9 78 -9.9 14.2 -6.54 -0.257
07:20 1010 29.83 839 24.78 -7.1 19.3 78 -10.4 13.4 -6.834 -0.269
07:21 1010 29.83 839 24.78 -7.4 18.6 79 -10.4 13.3 -7.13 -0.281
07:22 1010 29.83 839 24.78 -7.7 18.1 80 -10.5 13.1 -7.36 -0.29
07:23 1010 29.83 839 24.78 -7.8 18 84 -10 14 -7.39 -0.291
07:24 1010 29.83 839 24.78 -7.5 18.5 83 -9.9 14.1 -7.15 -0.281
07:25 1010 29.83 839 24.78 -7.4 18.6 82 -10 14.1 -7.02 -0.276
07:26 1010 29.83 839 24.78 -7.4 18.6 82 -10 13.9 -6.969 -0.274
07:27 1010 29.83 839 24.78 -7.4 18.6 82 -10 13.9 -6.986 -0.275
07:28 1010 29.83 839 24.78 -7.4 18.7 82 -9.9 14.2 -6.975 -0.275
07:29 1010 29.83 839 24.78 -7.3 18.9 81 -10 14 -6.861 -0.27
07:30 1010 29.83 839 24.78 -7.3 18.9 82 -9.9 14.3 -6.827 -0.269
07:31 1010 29.83 839 24.78 -7.1 19.2 81 -9.9 14.3 -6.731 -0.265
07:32 1010 29.83 839 24.78 -7.1 19.2 81 -9.8 14.3 -6.73 -0.265
07:33 1010 29.83 839 24.78 -7 19.3 81 -9.7 14.5 -6.651 -0.262
07:34 1010 29.83 839 24.78 -7 19.5 81 -9.8 14.4 -6.611 -0.26
07:35 1010 29.83 839 24.78 -7.1 19.3 80 -10 14 -6.707 -0.264
07:36 1010 29.83 839 24.78 -7.3 18.8 80 -10.2 13.7 -6.9 -0.272
07:37 1010 29.83 839 24.78 -7.5 18.4 81 -10.3 13.5 -7.13 -0.281
07:38 1010 29.83 839 24.78 -7.8 18 82 -10.3 13.4 -7.36 -0.29
07:39 1010 29.83 839 24.78 -7.9 17.8 83 -10.3 13.4 -7.44 -0.293
07:40 1010 29.83 839 24.78 -7.8 17.9 82 -10.3 13.4 -7.42 -0.292
07:41 1010 29.83 839 24.78 -7.8 17.9 83 -10.3 13.5 -7.38 -0.291
07:42 1010 29.83 839 24.78 -7.8 18 83 -10.2 13.7 -7.32 -0.288
07:43 1010 29.83 839 24.78 -7.7 18.2 83 -10.1 13.8 -7.3 -0.287
07:44 1010 29.83 839 24.78 -7.7 18.2 83 -10.1 13.8 -7.26 -0.286
07:45 1010 29.83 839 24.78 -7.7 18.1 83 -10.1 13.9 -7.34 -0.289
07:46 1010 29.83 840 24.81 -7.7 18.1 83 -10.1 13.9 -7.33 -0.289
07:47 1010 29.83 840 24.81 -7.8 18 83 -10.2 13.7 -7.37 -0.29
07:48 1010 29.83 840 24.81 -7.8 17.9 84 -10.1 13.8 -7.36 -0.29
07:49 1010 29.83 840 24.81 -7.7 18.2 83 -10 13.9 -7.27 -0.286
07:50 1010 29.83 840 24.81 -7.7 18.1 83 -10.2 13.7 -7.28 -0.287
07:51 1010 29.83 840 24.81 -7.7 18.1 83 -10.1 13.8 -7.31 -0.288
07:52 1010 29.83 840 24.81 -7.7 18.2 84 -9.9 14.1 -7.22 -0.284
07:53 1010 29.83 840 24.81 -7.7 18.2 84 -9.9 14.3 -7.21 -0.284
07:54 1010 29.83 840 24.81 -7.5 18.5 85 -9.6 14.8 -7.08 -0.279
07:55 1010 29.83 840 24.81 -7.3 19 85 -9.4 15.1 -6.809 -0.268
07:56 1010 29.83 840 24.81 -7.1 19.2 84 -9.4 15.1 -6.661 -0.262
07:57 1010 29.83 840 24.81 -7.1 19.2 83 -9.5 14.9 -6.673 -0.263
07:58 1010 29.83 840 24.81 -7.1 19.3 83 -9.4 15.1 -6.65 -0.262
07:59 1010 29.83 840 24.81 -7 19.4 84 -9.3 15.3 -6.599 -0.26
08:00 1010 29.83 840 24.81 -7 19.5 84 -9.2 15.5 -6.519 -0.257
08:01 1010 29.83 840 24.81 -6.8 19.7 84 -9.2 15.5 -6.406 -0.252
08:02 1010 29.83 840 24.81 -6.6 20.1 82 -9.2 15.5 -6.236 -0.246
08:03 1010 29.83 840 24.81 -6.4 20.4 81 -9.2 15.5 -6.049 -0.238
08:04 1010 29.83 840 24.81 -6.2 20.8 80 -9.1 15.7 -5.913 -0.233
08:05 1010 29.83 840 24.81 -6.2 20.8 81 -9 15.7 -5.811 -0.229
08:06 1010 29.83 840 24.81 -6.1 20.9 81 -8.9 16 -5.754 -0.227
08:07 1010 29.83 840 24.81 -6.2 20.9 82 -8.8 16.2 -5.709 -0.225
08:08 1010 29.83 840 24.81 -6.2 20.9 81 -8.9 16 -5.698 -0.224
08:09 1010 29.83 840 24.81 -6.1 21.1 81 -8.8 16.1 -5.664 -0.223
08:10 1010 29.83 840 24.81 -6 21.1 81 -8.8 16.1 -5.618 -0.221
08:11 1010 29.83 840 24.81 -5.9 21.3 80 -8.8 16.1 -5.516 -0.217
08:12 1010 29.83 840 24.81 -5.8 21.6 80 -8.8 16.2 -5.442 -0.214
08:13 1010 29.83 840 24.81 -5.8 21.6 80 -8.8 16.2 -5.403 -0.213
08:14 1010 29.83 840 24.81 -5.7 21.7 79 -8.8 16.2 -5.363 -0.211
08:15 1010 29.83 840 24.81 -5.6 21.9 77 -9 15.8 -5.233 -0.206
08:16 1010 29.83 840 24.81 -5.7 21.8 77 -9.1 15.7 -5.261 -0.207
08:17 1010 29.83 840 24.81 -5.8 21.6 77 -9.1 15.5 -5.357 -0.211
08:18 1010 29.83 840 24.81 -5.8 21.5 79 -9 15.8 -5.403 -0.213
08:19 1010 29.83 840 24.81 -5.8 21.6 79 -8.8 16.2 -5.386 -0.212
08:20 1010 29.83 840 24.81 -5.6 22 78 -8.8 16.1 -5.148 -0.203
08:21 1010 29.83 840 24.81 -5.3 22.4 75 -9 15.7 -5.029 -0.198
08:22 1010 29.83 840 24.81 -5.5 22.2 77 -8.9 15.9 -5.097 -0.201
08:23 1010 29.83 840 24.81 -5.4 22.3 76 -8.9 16 -5.051 -0.199
08:24 1010 29.83 840 24.81 -5.3 22.4 76 -9 15.8 -4.966 -0.196
08:25 1010 29.83 840 24.81 -5.4 22.3 73 -9.4 15 -5.102 -0.201
08:26 1010 29.83 840 24.81 -5.8 21.6 75 -9.5 14.9 -5.465 -0.215
08:27 1010 29.83 840 24.81 -6.1 21.1 77 -9.5 14.8 -5.714 -0.225
08:28 1010 29.83 840 24.81 -6.3 20.6 77 -9.7 14.5 -5.862 -0.231
08:29 1010 29.83 840 24.81 -6.3 20.6 77 -9.7 14.5 -5.856 -0.231
08:30 1010 29.83 840 24.81 -6.4 20.5 78 -9.6 14.8 -5.89 -0.232
08:31 1010 29.83 840 24.81 -6.3 20.6 81 -9.1 15.7 -5.817 -0.229
08:32 1010 29.83 840 24.81 -6.1 21 79 -9.2 15.4 -5.675 -0.223
08:33 1010 29.83 840 24.81 -6.2 20.8 76 -9.8 14.3 -5.834 -0.23
08:34 1010 29.83 840 24.81 -6.6 20.2 80 -9.5 14.9 -6.117 -0.241
08:35 1010 29.83 840 24.81 -6.6 20.1 80 -9.5 14.8 -6.134 -0.241
08:36 1010 29.83 840 24.81 -6.5 20.2 80 -9.5 14.9 -6.123 -0.241
08:37 1010 29.83 840 24.81 -6.5 20.3 77 -9.8 14.3 -6.134 -0.241
08:38 1010 29.83 840 24.81 -6.7 20 79 -9.7 14.5 -6.23 -0.245
08:39 1010 29.83 840 24.81 -6.6 20.1 77 -9.9 14.1 -6.242 -0.246
08:40 1010 29.83 840 24.81 -6.6 20.1 79 -9.8 14.4 -6.202 -0.244
08:41 1010 29.83 840 24.81 -6.5 20.2 77 -9.9 14.2 -6.196 -0.244
08:42 1010 29.83 840 24.81 -6.5 20.3 78 -9.7 14.6 -6.185 -0.244
08:43 1010 29.83 840 24.81 -6.4 20.5 79 -9.5 14.9 -6.043 -0.238
08:44 1010 29.83 840 24.81 -6.3 20.7 77 -9.7 14.6 -5.93 -0.233
08:45 1010 29.83 840 24.81 -6.3 20.7 77 -9.7 14.5 -5.948 -0.234
08:46 1010 29.83 840 24.81 -6.3 20.6 77 -9.8 14.4 -6.039 -0.238
08:47 1011 29.85 840 24.81 -6.4 20.4 77 -9.8 14.4 -6.112 -0.241
08:48 1011 29.85 840 24.81 -6.5 20.3 76 -10 13.9 -6.208 -0.244
08:49 1011 29.85 840 24.81 -6.6 20.1 79 -9.7 14.5 -6.282 -0.247
08:50 1010 29.83 840 24.81 -6.5 20.3 78 -9.7 14.5 -6.265 -0.247
08:51 1011 29.85 840 24.81 -6.5 20.3 78 -9.7 14.5 -6.158 -0.242
08:52 1011 29.85 840 24.81 -6.4 20.5 79 -9.5 14.9 -6.073 -0.239
08:53 1011 29.85 840 24.81 -6.2 20.9 78 -9.4 15.1 -5.864 -0.231
08:54 1010 29.83 840 24.81 -5.9 21.3 76 -9.4 15 -5.655 -0.223
08:55 1011 29.85 840 24.81 -5.8 21.6 75 -9.5 14.9 -5.553 -0.219
08:56 1011 29.85 840 24.81 -5.8 21.5 75 -9.5 14.9 -5.485 -0.216
08:57 1011 29.85 840 24.81 -5.8 21.5 76 -9.5 15 -5.406 -0.213
08:58 1011 29.85 840 24.81 -5.9 21.4 75 -9.6 14.8 -5.372 -0.211
08:59 1011 29.85 840 24.81 -6 21.3 76 -9.6 14.7 -5.463 -0.215
09:00 1011 29.85 840 24.81 -6 21.2 75 -9.7 14.5 -5.514 -0.217
09:01 1011 29.85 840 24.81 -6 21.3 75 -9.7 14.6 -5.418 -0.213
09:02 1011 29.85 840 24.81 -5.9 21.5 76 -9.4 15 -5.271 -0.208
09:03 1011 29.85 840 24.81 -5.7 21.7 76 -9.2 15.4 -4.908 -0.193
09:04 1011 29.85 840 24.81 -5.4 22.2 77 -8.8 16.1 -4.546 -0.179
09:05 1011 29.85 840 24.81 -5.1 22.8 75 -8.8 16.2 -4.206 -0.166
09:06 1011 29.85 840 24.81 -4.8 23.4 74 -8.8 16.2 -3.894 -0.153
09:07 1011 29.85 840 24.81 -4.5 23.8 73 -8.7 16.3 -3.605 -0.142
09:08 1011 29.85 840 24.81 -4.3 24.2 72 -8.7 16.4 -3.447 -0.136
09:09 1011 29.85 840 24.81 -4.3 24.3 71 -8.7 16.3 -3.311 -0.13
09:10 1011 29.85 840 24.81 -4.1 24.6 72 -8.5 16.7 -3.254 -0.128
09:11 1011 29.85 840 24.81 -4 24.8 71 -8.5 16.6 -3.181 -0.125
09:12 1011 29.85 840 24.81 -3.9 25 70 -8.5 16.7 -3.05 -0.12
09:13 1011 29.85 840 24.81 -3.8 25.2 70 -8.5 16.8 -3.005 -0.118
09:14 1011 29.85 840 24.81 -3.7 25.3 70 -8.5 16.7 -3.011 -0.119
09:15 1011 29.85 840 24.81 -3.7 25.4 69 -8.5 16.7 -2.943 -0.116
09:16 1011 29.85 840 24.81 -3.7 25.4 69 -8.5 16.6 -2.875 -0.113
09:17 1011 29.85 840 24.81 -3.6 25.5 69 -8.5 16.6 -2.858 -0.113
09:18 1011 29.85 840 24.81 -3.6 25.6 69 -8.5 16.7 -2.858 -0.113
09:19 1011 29.85 840 24.81 -3.5 25.7 70 -8.3 17 -2.784 -0.11
09:20 1011 29.85 840 24.81 -3.4 25.8 71 -7.9 17.7 -2.722 -0.107
09:21 1011 29.85 840 24.81 -3.3 26.1 72 -7.7 18.1 -2.586 -0.102
09:22 1011 29.85 840 24.81 -3.2 26.3 71 -7.7 18.1 -2.399 -0.094
09:23 1011 29.85 840 24.81 -3.1 26.5 69 -7.9 17.8 -2.326 -0.092
09:24 1011 29.85 840 24.81 -3 26.6 69 -7.9 17.7 -2.242 -0.088
09:25 1011 29.85 840 24.81 -2.9 26.8 68 -7.9 17.8 -2.015 -0.079
09:26 1011 29.85 840 24.81 -2.8 26.9 68 -7.8 17.9 -1.852 -0.073
09:27 1011 29.85 840 24.81 -2.7 27.1 68 -7.9 17.8 -1.75 -0.069
09:28 1011 29.85 840 24.81 -2.7 27.2 68 -7.8 18 -1.676 -0.066
09:29 1011 29.85 840 24.81 -2.6 27.4 68 -7.7 18.1 -1.524 -0.06
09:30 1011 29.85 840 24.81 -2.5 27.5 67 -7.8 18 -1.399 -0.055
09:31 1011 29.85 840 24.81 -2.4 27.6 67 -7.8 18 -1.246 -0.049
09:32 1011 29.85 840 24.81 -2.4 27.7 67 -7.7 18.1 -1.067 -0.042
09:33 1011 29.85 840 24.81 -2.3 27.8 67 -7.7 18.1 -.914 -0.036
09:34 1011 29.85 840 24.81 -2.3 27.9 67 -7.7 18.2 -.812 -0.032
09:35 1011 29.85 840 24.81 -2.2 28 67 -7.5 18.6 -.865 -0.034
09:36 1011 29.85 840 24.81 -2.2 28.1 67 -7.5 18.5 -1.001 -0.039
09:37 1011 29.85 840 24.81 -2.1 28.2 67 -7.4 18.6 -1.035 -0.041
09:38 1011 29.85 840 24.81 -2.1 28.3 66 -7.5 18.5 -1.025 -0.04
09:39 1011 29.85 840 24.81 -2 28.5 66 -7.4 18.7 -1.025 -0.04
09:40 1011 29.85 840 24.81 -1.9 28.6 67 -7.2 19 -.968 -0.038
09:41 1011 29.85 840 24.81 -1.8 28.7 67 -7.2 19.1 -.844 -0.033
09:42 1011 29.85 840 24.81 -1.8 28.8 67 -7.2 19 -.754 -0.03
09:43 1011 29.85 840 24.81 -1.7 28.9 68 -7 19.5 -.646 -0.025
09:44 1011 29.85 840 24.81 -1.7 28.9 68 -6.9 19.6 -.454 -0.018
09:45 1011 29.85 840 24.81 -1.7 28.9 67 -7 19.4 -.386 -0.015
09:46 1011 29.85 840 24.81 -1.7 28.9 67 -7.1 19.2 -.415 -0.016
09:47 1011 29.85 840 24.81 -1.7 29 67 -7.1 19.3 -.455 -0.018
09:48 1011 29.85 840 24.81 -1.5 29.2 66 -7.1 19.2 -.257 -0.01
09:49 1011 29.85 840 24.81 -1.4 29.5 65 -7.1 19.3 -.064 -0.003
09:50 1011 29.85 840 24.81 -1.2 29.8 64 -7.2 19.1 .105 0.004
09:51 1011 29.85 840 24.81 -1.1 30 64 -7 19.3 .292 0.011
09:52 1011 29.85 840 24.81 -0.9 30.4 64 -7 19.5 .524 0.021
09:53 1011 29.85 840 24.81 -0.7 30.7 63 -6.9 19.6 .875 0.034
09:54 1011 29.85 840 24.81 -0.6 30.9 63 -6.8 19.7 1.051 0.041
09:55 1011 29.85 840 24.81 -0.6 31 63 -6.8 19.7 .988 0.039
09:56 1011 29.85 840 24.81 -0.5 31.1 62 -6.8 19.8 .943 0.037
09:57 1011 29.85 840 24.81 -0.4 31.3 63 -6.6 20 .988 0.039
09:58 1011 29.85 840 24.81 -0.3 31.5 63 -6.5 20.3 1.327 0.052
09:59 1011 29.85 840 24.81 -0.1 31.9 64 -6.1 21 1.689 0.066
10:00 1011 29.85 840 24.81 0.2 32.3 64 -5.8 21.6 2.125 0.084
10:01 1011 29.85 840 24.81 0.5 32.9 64 -5.5 22 2.538 0.1
10:02 1011 29.85 840 24.81 0.9 33.6 63 -5.5 22.2 2.588 0.102
10:03 1011 29.85 840 24.81 1.2 34.1 61 -5.5 22.2 2.209 0.087
10:04 1011 29.85 840 24.81 1.2 34.2 61 -5.4 22.2 1.878 0.074
10:05 1011 29.85 840 24.81 1.2 34.2 62 -5.2 22.6 1.719 0.068
10:06 1011 29.85 840 24.81 1.2 34.2 65 -4.6 23.8 1.691 0.067
10:07 1011 29.85 840 24.81 1.3 34.4 63 -4.9 23.2 1.791 0.071
10:08 1011 29.85 840 24.81 1.4 34.5 67 -4 24.8 1.779 0.07
10:09 1011 29.85 840 24.81 1.5 34.6 67 -4 24.8 1.898 0.075
10:10 1011 29.85 840 24.81 1.6 34.9 66 -4 24.7 2.033 0.08
10:11 1011 29.85 840 24.81 1.8 35.2 66 -4 24.8 2.135 0.084
10:12 1011 29.85 840 24.81 1.8 35.3 64 -4.2 24.4 2.135 0.084
10:13 1011 29.85 840 24.81 1.7 35.1 65 -4.2 24.5 2.156 0.085
10:14 1011 29.85 840 24.81 1.4 34.5 65 -4.4 24 2.065 0.081
10:15 1011 29.85 840 24.81 0.9 33.7 65 -4.8 23.3 1.788 0.07
10:16 1011 29.85 840 24.81 0.5 32.9 65 -5.2 22.6 1.441 0.057
10:17 1011 29.85 840 24.81 0.1 32.2 66 -5.4 22.2 1.09 0.043
10:18 1011 29.85 840 24.81 -0.3 31.4 67 -5.6 21.9 .677 0.027
10:19 1011 29.85 840 24.81 -0.7 30.8 71 -5.3 22.5 .223 0.009
10:20 1011 29.85 840 24.81 -1.1 30.1 73 -5.3 22.4 -.202 -0.008
10:21 1011 29.85 840 24.81 -1.4 29.4 73 -5.6 21.9 -.57 -0.022
10:22 1011 29.85 840 24.81 -1.6 29.1 76 -5.4 22.3 -.702 -0.028
10:23 1011 29.85 840 24.81 -1.7 29 76 -5.4 22.3 -.787 -0.031
10:24 1011 29.85 840 24.81 -1.7 29 75 -5.6 22 -.799 -0.031
10:25 1011 29.85 840 24.81 -1.6 29.1 75 -5.6 22 -.738 -0.029
10:26 1011 29.85 840 24.81 -1.5 29.3 75 -5.3 22.5 -.619 -0.024
10:27 1011 29.85 840 24.81 -1.4 29.5 75 -5.2 22.6 -.495 -0.019
10:28 1011 29.85 840 24.81 -1.3 29.6 75 -5.2 22.6 -.395 -0.016
10:29 1011 29.85 840 24.81 -1.2 29.8 75 -5 23 -.316 -0.012
10:30 1011 29.85 840 24.81 -1.2 29.9 75 -5.1 22.8 -.248 -0.01
10:31 1011 29.85 840 24.81 -1.1 30 75 -4.9 23.1 -.255 -0.01
10:32 1011 29.85 840 24.81 -1.2 29.9 75 -5.1 22.8 -.289 -0.011
10:33 1011 29.85 840 24.81 -1.2 29.9 75 -5 22.9 -.279 -0.011
10:34 1011 29.85 840 24.81 -1.2 29.9 76 -4.9 23.2 -.251 -0.01
10:35 1011 29.85 840 24.81 -1.1 30 75 -5 23.1 -.201 -0.008
10:36 1011 29.85 840 24.81 -1.1 30 75 -5.1 22.9 -.207 -0.008
10:37 1011 29.85 840 24.81 -1.1 29.9 75 -4.9 23.1 -.241 -0.009
10:38 1011 29.85 840 24.81 -1.2 29.8 74 -5.2 22.7 -.236 -0.009
10:39 1011 29.85 840 24.81 -1.2 29.9 74 -5.3 22.5 -.299 -0.012
10:40 1011 29.85 840 24.81 -1.2 29.9 74 -5.2 22.6 -.305 -0.012
10:41 1011 29.85 840 24.81 -1.2 29.9 75 -5 23 -.265 -0.01
10:42 1011 29.85 840 24.81 -1.2 29.9 77 -4.8 23.4 -.232 -0.009
10:43 1011 29.85 840 24.81 -1.1 30 76 -4.8 23.3 -.209 -0.008
10:44 1011 29.85 840 24.81 -1.1 30.1 75 -5 23.1 -.192 -0.008
10:45 1011 29.85 840 24.81 -1 30.1 74 -5.2 22.7 -.153 -0.006
10:46 1011 29.85 840 24.81 -1 30.2 73 -5.2 22.6 -.086 -0.003
10:47 1011 29.85 840 24.81 -0.9 30.4 75 -4.8 23.3 .062 0.002
10:48 1011 29.85 840 24.81 -0.7 30.7 74 -4.9 23.2 .18 0.007
10:49 1011 29.85 840 24.81 -0.6 30.8 74 -4.7 23.6 .288 0.011
10:50 1011 29.85 840 24.81 -0.6 31 75 -4.4 24 .401 0.016
10:51 1011 29.85 840 24.81 -0.4 31.3 72 -4.8 23.4 .61 0.024
10:52 1011 29.85 840 24.81 -0.4 31.3 73 -4.6 23.7 .632 0.025
10:53 1011 29.85 840 24.81 -0.4 31.3 70 -5.2 22.6 .61 0.024
10:54 1011 29.85 840 24.81 -0.4 31.2 70 -5.2 22.6 .529 0.021
10:55 1011 29.85 840 24.81 -0.5 31.1 70 -5.4 22.4 .506 0.02
10:56 1011 29.85 840 24.81 -0.4 31.2 70 -5.2 22.6 .495 0.019
10:57 1011 29.85 840 24.81 -0.4 31.4 70 -5.1 22.8 .652 0.026
10:58 1011 29.85 840 24.81 -0.3 31.5 69 -5.2 22.6 .782 0.031
10:59 1011 29.85 840 24.81 -0.1 31.8 69 -5 23 .958 0.038
11:00 1011 29.85 840 24.81 0.1 32.2 68 -5.1 22.8 1.17 0.046
11:01 1011 29.85 840 24.81 0.2 32.3 67 -5.2 22.6 1.249 0.049
11:02 1011 29.85 840 24.81 0.2 32.3 65 -5.6 21.9 1.21 0.048
11:03 1011 29.85 840 24.81 0 32.1 66 -5.6 22 1.049 0.041
11:04 1011 29.85 840 24.81 -0.1 31.9 65 -5.8 21.6 .97 0.038
11:05 1011 29.85 840 24.81 -0 32 68 -5.3 22.5 .902 0.036
11:06 1011 29.85 840 24.81 0.1 32.1 69 -4.9 23.2 1.048 0.041
11:07 1011 29.85 840 24.81 0.2 32.3 67 -5.3 22.5 1.184 0.047
11:08 1011 29.85 840 24.81 0.2 32.4 68 -5.1 22.8 1.228 0.048
11:09 1011 29.85 840 24.81 0.3 32.6 68 -4.8 23.3 1.262 0.05
11:10 1011 29.85 840 24.81 0.4 32.7 67 -5.1 22.8 1.295 0.051
11:11 1011 29.85 840 24.81 0.5 32.9 60 -6.4 20.4 1.273 0.05
11:12 1011 29.85 840 24.81 0.5 32.9 62 -6 21.2 1.153 0.045
11:13 1011 29.85 840 24.81 0.5 33 58 -6.9 19.6 1.102 0.043
11:14 1011 29.85 840 24.81 0.6 33 58 -6.9 19.6 1.034 0.041
11:15 1011 29.85 840 24.81 0.7 33.3 58 -6.6 20.2 1.079 0.042
11:16 1011 29.85 840 24.81 0.7 33.3 57 -6.9 19.5 1.096 0.043
11:17 1011 29.85 840 24.81 0.8 33.4 56 -6.9 19.5 1.146 0.045
11:18 1011 29.85 840 24.81 1 33.7 59 -6.1 20.9 1.259 0.05
11:19 1011 29.85 840 24.81 1.2 34.2 57 -6.4 20.5 1.412 0.056
11:20 1011 29.85 840 24.81 1.5 34.7 55 -6.5 20.3 1.406 0.055
11:21 1011 29.85 840 24.81 1.7 35 54 -6.6 20.1 1.332 0.052
11:22 1011 29.85 840 24.81 1.7 35.1 52 -7.1 19.2 1.275 0.05
11:23 1011 29.85 840 24.81 1.8 35.2 53 -6.8 19.8 1.213 0.048
11:24 1011 29.85 840 24.81 1.7 35.1 57 -6 21.2 1.281 0.05
11:25 1011 29.85 840 24.81 1.6 34.9 54 -6.6 20.1 1.173 0.046
11:26 1011 29.85 840 24.81 1.7 35 53 -6.8 19.7 1.111 0.044
11:27 1011 29.85 840 24.81 1.7 35 55 -6.4 20.4 1.15 0.045
11:28 1011 29.85 840 24.81 1.7 35 53 -6.9 19.6 1.195 0.047
11:29 1011 29.85 840 24.81 1.4 34.5 52 -7.3 18.9 1.177 0.046
11:30 1011 29.85 840 24.81 1.4 34.4 54 -7.1 19.3 1.256 0.049
11:31 1011 29.85 840 24.81 1.6 34.8 53 -7.1 19.2 1.347 0.053
11:32 1011 29.85 840 24.81 1.8 35.3 52 -7.1 19.3 1.453 0.057
11:33 1011 29.85 840 24.81 2 35.6 53 -6.6 20.1 1.481 0.058
11:34 1011 29.85 840 24.81 1.9 35.5 53 -6.8 19.8 1.56 0.061
11:35 1011 29.85 840 24.81 2 35.5 53 -6.7 19.9 1.735 0.068
11:36 1011 29.85 840 24.81 2 35.6 48 -7.8 17.9 1.718 0.068
11:37 1011 29.85 840 24.81 2 35.6 51 -7.1 19.2 1.74 0.069
11:38 1011 29.85 840 24.81 1.9 35.4 49 -7.6 18.3 1.756 0.069
11:39 1011 29.85 840 24.81 1.9 35.3 44 -9.1 15.7 1.649 0.065
11:40 1011 29.85 840 24.81 1.8 35.2 44 -9.2 15.5 1.507 0.059
11:41 1011 29.85 840 24.81 1.6 35 46 -8.7 16.3 1.505 0.059
11:42 1011 29.85 840 24.81 1.7 35 47 -8.6 16.6 1.59 0.063
11:43 1011 29.85 840 24.81 1.8 35.3 45 -8.9 16.1 1.817 0.072
11:44 1011 29.85 840 24.81 1.9 35.5 44 -9 15.7 1.883 0.074
11:45 1011 29.85 840 24.81 2.1 35.7 44 -8.9 16 1.809 0.071
11:46 1011 29.85 840 24.81 2.1 35.8 44 -8.8 16.2 1.752 0.069
11:47 1011 29.85 840 24.81 2.1 35.8 43 -9.2 15.4 1.768 0.07
11:48 1011 29.85 840 24.81 2.2 35.9 42 -9.4 15.1 1.813 0.071
11:49 1011 29.85 840 24.81 2.2 35.9 41 -9.8 14.3 1.751 0.069
11:50 1011 29.85 840 24.81 2.1 35.8 44 -9 15.8 1.812 0.071
11:51 1011 29.85 840 24.81 2.2 35.9 45 -8.6 16.5 2.01 0.079
11:52 1011 29.85 840 24.81 2.2 36 45 -8.5 16.7 2.089 0.082
11:53 1011 29.85 840 24.81 2.3 36.1 44 -8.6 16.4 2.117 0.083
11:54 1011 29.85 840 24.81 2.3 36.1 43 -9.2 15.5 2.094 0.082
11:55 1011 29.85 840 24.81 2.5 36.5 44 -8.7 16.4 2.371 0.093
11:56 1011 29.85 840 24.81 2.7 36.9 45 -8 17.6 2.484 0.098
11:57 1011 29.85 840 24.81 2.8 37.1 45 -8 17.6 2.637 0.104
11:58 1011 29.85 840 24.81 2.8 37.1 40 -9.5 14.9 2.62 0.103
11:59 1011 29.85 840 24.81 2.8 37 41 -9.1 15.6 2.557 0.101
12:00 1011 29.85 840 24.81 2.7 36.8 42 -9.1 15.7 2.546 0.1
12:01 1011 29.85 840 24.81 2.7 36.9 44 -8.3 17 2.698 0.106
12:02 1011 29.85 840 24.81 2.7 36.8 45 -8.2 17.2 2.84 0.112
12:03 1011 29.85 840 24.81 2.6 36.8 44 -8.4 16.9 2.879 0.113
12:04 1011 29.85 840 24.81 2.5 36.5 44 -8.5 16.7 2.834 0.112
12:05 1011 29.85 840 24.81 2.5 36.4 46 -8.1 17.4 2.867 0.113
12:06 1011 29.85 840 24.81 2.4 36.3 43 -9.1 15.7 2.811 0.111
12:07 1011 29.85 840 24.81 2.3 36.1 47 -7.9 17.8 2.765 0.109
12:08 1011 29.85 840 24.81 2.3 36.1 47 -7.9 17.7 2.748 0.108
12:09 1011 29.85 840 24.81 2.2 36 46 -8.2 17.3 2.782 0.11
12:10 1011 29.85 840 24.81 2.1 35.8 45 -8.5 16.7 2.692 0.106
12:11 1011 29.85 840 24.81 2 35.6 44 -8.9 15.9 2.539 0.1
12:12 1011 29.85 840 24.81 2 35.6 44 -9.1 15.6 2.488 0.098
12:13 1011 29.85 840 24.81 2 35.6 46 -8.4 16.9 2.556 0.101
12:14 1011 29.85 840 24.81 2.1 35.7 43 -9.3 15.2 2.578 0.101
12:15 1011 29.85 840 24.81 2 35.6 41 -9.8 14.4 2.556 0.101
12:16 1011 29.85 840 24.81 2 35.7 40 -10.3 13.4 2.578 0.101
12:17 1011 29.85 840 24.81 2.1 35.7 44 -9.1 15.7 2.606 0.103
12:18 1011 29.85 840 24.81 2.1 35.7 41 -9.8 14.4 2.623 0.103
12:19 1011 29.85 840 24.81 2.2 35.9 38 -10.8 12.5 2.633 0.104
12:20 1011 29.85 840 24.81 2.2 36 40 -10.2 13.7 2.661 0.105
12:21 1011 29.85 840 24.81 2.3 36.1 39 -10.3 13.5 2.695 0.106
12:22 1011 29.85 840 24.81 2.4 36.3 38 -10.6 13 2.758 0.109
12:23 1011 29.85 840 24.81 2.4 36.3 38 -10.4 13.3 2.809 0.111
12:24 1011 29.85 840 24.81 2.5 36.5 39 -10.2 13.6 2.984 0.117
12:25 1011 29.85 840 24.81 2.7 36.9 43 -8.6 16.5 3.186 0.125
12:26 1011 29.85 840 24.81 2.9 37.3 36 -10.6 12.8 3.413 0.134
12:27 1011 29.85 840 24.81 3.2 37.8 35 -10.6 12.8 3.56 0.14
12:28 1011 29.85 840 24.81 3.6 38.5 35 -10.4 13.4 3.779 0.149
12:29 1011 29.85 840 24.81 3.8 38.9 35 -10.1 13.8 3.949 0.155
12:30 1011 29.85 840 24.81 4 39.1 36 -9.9 14.2 4.119 0.162
12:31 1011 29.85 840 24.81 4 39.1 37 -9.3 15.2 4.084 0.161
12:32 1011 29.85 840 24.81 3.8 38.8 35 -10.2 13.7 3.965 0.156
12:33 1011 29.85 840 24.81 3.7 38.6 39 -8.9 16 3.942 0.155
12:34 1011 29.85 840 24.81 3.6 38.5 37 -9.6 14.6 3.986 0.157
12:35 1011 29.85 840 24.81 3.5 38.2 36 -10.1 13.8 3.867 0.152
12:36 1011 29.85 840 24.81 3.3 38 39 -9.3 15.2 3.827 0.151
12:37 1011 29.85 840 24.81 3.4 38.1 39 -9.2 15.4 3.927 0.155
12:38 1011 29.85 840 24.81 3.5 38.4 38 -9.4 15.1 4.182 0.165
12:39 1011 29.85 840 24.81 3.7 38.7 40 -8.6 16.6 4.47 0.176
12:40 1011 29.85 840 24.81 3.9 39 41 -8.1 17.4 4.65 0.183
12:41 1011 29.85 840 24.81 3.8 38.9 36 -10 14 4.627 0.182
12:42 1011 29.85 840 24.81 3.6 38.5 36 -10.2 13.6 4.469 0.176
12:43 1011 29.85 840 24.81 3.5 38.3 40 -9 15.9 4.377 0.172
12:44 1011 29.85 840 24.81 3.6 38.5 35 -10.4 13.3 4.366 0.172
12:45 1011 29.85 840 24.81 3.6 38.5 36 -10.2 13.6 4.349 0.171
12:46 1011 29.85 840 24.81 3.7 38.7 36 -10.1 13.9 4.342 0.171
12:47 1011 29.85 840 24.81 3.8 38.8 38 -9.4 15 4.275 0.168
12:48 1011 29.85 840 24.81 3.8 38.8 37 -9.6 14.8 4.308 0.17
12:49 1011 29.85 840 24.81 3.8 38.8 36 -9.9 14.1 4.33 0.17
12:50 1011 29.85 840 24.81 3.8 38.8 35 -10.2 13.7 4.336 0.171
12:51 1011 29.85 840 24.81 3.8 38.9 37 -9.6 14.7 4.324 0.17
12:52 1011 29.85 840 24.81 3.7 38.7 38 -9.1 15.5 4.211 0.166
12:53 1011 29.85 840 24.81 3.7 38.7 37 -9.7 14.6 4.228 0.166
12:54 1011 29.85 840 24.81 3.7 38.7 33 -11.1 12 4.188 0.165
12:55 1011 29.85 840 24.81 4 39.1 35 -10.3 13.5 4.301 0.169
12:56 1011 29.85 840 24.81 4.4 40 35 -9.9 14.3 4.607 0.181
12:57 1011 29.85 840 24.81 5 40.9 32 -10.3 13.4 4.985 0.196
12:58 1011 29.85 840 24.81 5.5 41.9 33 -9.5 14.9 5.37 0.211
12:59 1010 29.83 840 24.81 6.1 43 31 -9.9 14.2 5.93 0.233
13:00 1011 29.85 840 24.81 6.8 44.2 31 -9.3 15.3 6.625 0.261
13:01 1010 29.83 840 24.81 7.4 45.3 28 -9.8 14.4 7.31 0.288
13:02 1010 29.83 840 24.81 7.7 45.9 29 -9.1 15.7 7.71 0.304
13:03 1010 29.83 840 24.81 8.2 46.7 28 -9.2 15.4 7.89 0.311
13:04 1011 29.85 840 24.81 8.5 47.4 28 -8.8 16.1 8.13 0.32
13:05 1010 29.83 840 24.81 8.5 47.2 27 -9.3 15.2 8.07 0.318
13:06 1010 29.83 840 24.81 7.7 45.8 29 -9.2 15.4 7.68 0.302
13:07 1010 29.83 840 24.81 7.1 44.7 30 -9.4 15.1 7.27 0.286
13:08 1010 29.83 840 24.81 6.3 43.3 32 -9.4 15.1 6.421 0.253
13:09 1010 29.83 840 24.81 5.4 41.8 31 -10.4 13.2 5.544 0.218
13:10 1010 29.83 840 24.81 4.6 40.2 34 -10.1 13.7 4.786 0.188
13:11 1010 29.83 840 24.81 4.1 39.4 38 -9.1 15.7 4.407 0.174
13:12 1010 29.83 840 24.81 3.8 38.9 34 -10.5 13 4.266 0.168
13:13 1010 29.83 840 24.81 3.6 38.5 33 -11.3 11.6 4.158 0.164
13:14 1010 29.83 840 24.81 3.6 38.4 33 -11.3 11.7 4.09 0.161
13:15 1010 29.83 840 24.81 3.5 38.4 32 -11.8 10.7 4.141 0.163
13:16 1010 29.83 840 24.81 3.6 38.5 32 -11.5 11.3 4.3 0.169
13:17 1010 29.83 840 24.81 3.8 38.9 33 -11 12.2 4.644 0.183
13:18 1010 29.83 839 24.78 4 39.2 32 -11.4 11.4 4.965 0.195
13:19 1010 29.83 839 24.78 4.1 39.5 31 -11.6 11.1 5.186 0.204
13:20 1010 29.83 839 24.78 4.2 39.6 31 -11.6 11.1 5.128 0.202
13:21 1010 29.83 839 24.78 4.3 39.7 33 -10.5 13.1 5.155 0.203
13:22 1010 29.83 839 24.78 4.4 39.9 33 -10.6 13 5.217 0.205
13:23 1010 29.83 839 24.78 4.8 40.6 31 -11.1 11.9 5.414 0.213
13:24 1010 29.83 839 24.78 5.4 41.7 30 -10.9 12.3 5.758 0.227
13:25 1010 29.83 839 24.78 6 42.8 28 -11.1 11.9 6.069 0.239
13:26 1010 29.83 839 24.78 6.5 43.7 27 -11.1 11.9 6.605 0.26
13:27 1010 29.83 839 24.78 7 44.5 28 -10.3 13.5 7.43 0.293
13:28 1010 29.83 839 24.78 7.2 45 28 -10.2 13.7 8.17 0.322
13:29 1010 29.83 839 24.78 7.5 45.5 27 -10.3 13.4 8.77 0.345
13:30 1010 29.83 839 24.78 7.9 46.2 27 -10.2 13.7 9.34 0.368
13:31 1010 29.83 839 24.78 8.4 47.1 25 -10.3 13.4 9.92 0.391
13:32 1010 29.83 839 24.78 8.9 48 25 -10.3 13.4 10.27 0.404
13:33 1010 29.83 839 24.78 8.7 47.7 23 -11.4 11.5 10.17 0.4
13:34 1010 29.83 839 24.78 8.2 46.7 26 -10 14 9.67 0.381
13:35 1010 29.83 839 24.78 7.8 46 25 -11.2 11.9 9.18 0.361
13:36 1010 29.83 839 24.78 7.7 45.9 25 -11.2 11.9 8.86 0.349
13:37 1010 29.83 839 24.78 7.9 46.2 26 -10.5 13.1 8.94 0.352
13:38 1010 29.83 839 24.78 8.2 46.8 25 -10.6 13 9.17 0.361
13:39 1010 29.83 839 24.78 7.9 46.1 26 -10.6 12.9 8.84 0.348
13:40 1010 29.83 839 24.78 7.1 44.8 27 -10.8 12.6 8.16 0.321
13:41 1010 29.83 839 24.78 6.6 43.8 28 -10.8 12.6 7.71 0.304
13:42 1010 29.83 839 24.78 6.6 43.8 26 -11.4 11.4 7.58 0.298
13:43 1010 29.83 839 24.78 6.8 44.3 26 -11.4 11.5 7.63 0.3
13:44 1010 29.83 839 24.78 6.7 44.1 26 -11.5 11.3 7.53 0.296
13:45 1010 29.83 839 24.78 6.7 44 27 -11.1 12 7.5 0.295
13:46 1010 29.83 839 24.78 6.6 43.8 28 -10.7 12.8 7.4 0.291
13:47 1010 29.83 839 24.78 6.4 43.6 27 -11.4 11.4 7.3 0.287
13:48 1010 29.83 839 24.78 6.5 43.7 28 -10.8 12.5 7.08 0.279
13:49 1010 29.83 839 24.78 6.6 43.8 28 -10.7 12.8 7.06 0.278
13:50 1010 29.83 839 24.78 6.5 43.6 27 -11.4 11.5 7.38 0.291
13:51 1010 29.83 839 24.78 6.2 43.2 31 -9.9 14.2 7.71 0.304
13:52 1010 29.83 839 24.78 6 42.9 29 -10.6 13 7.89 0.311
13:53 1010 29.83 839 24.78 6.1 42.9 29 -10.7 12.7 8.1 0.319
13:54 1010 29.83 839 24.78 6.5 43.6 29 -10.5 13.1 8.31 0.327
13:55 1010 29.83 839 24.78 7.2 45 28 -10.3 13.5 8.81 0.347
13:56 1010 29.83 839 24.78 8 46.3 26 -10.4 13.2 9.06 0.357
13:57 1010 29.83 839 24.78 8.4 47.2 25 -10.5 13.2 9.21 0.363
13:58 1010 29.83 839 24.78 8.5 47.3 23 -11.5 11.4 8.8 0.346
13:59 1010 29.83 839 24.78 7.9 46.2 27 -10 13.9 7.86 0.309
14:00 1010 29.83 839 24.78 7.3 45.1 26 -10.9 12.3 6.959 0.274
14:01 1010 29.83 839 24.78 6.9 44.4 26 -11.3 11.6 6.365 0.251
14:02 1010 29.83 839 24.78 6.4 43.5 29 -10.6 13 6.032 0.237
14:03 1010 29.83 839 24.78 5.8 42.4 29 -11.1 12.1 5.709 0.225
14:04 1010 29.83 839 24.78 5.3 41.6 29 -11.1 12 5.263 0.207
14:05 1010 29.83 839 24.78 5 41 34 -9.6 14.7 4.793 0.189
14:06 1010 29.83 839 24.78 4.6 40.3 36 -9.3 15.3 4.528 0.178
14:07 1010 29.83 839 24.78 4.2 39.6 32 -11.2 11.9 4.268 0.168
14:08 1010 29.83 839 24.78 4 39.2 35 -10 14.1 4.115 0.162
14:09 1010 29.83 839 24.78 3.8 38.8 40 -8.6 16.6 4.149 0.163
14:10 1010 29.83 839 24.78 3.6 38.5 34 -10.7 12.7 4.16 0.164
14:11 1010 29.83 839 24.78 3.5 38.2 39 -9.2 15.4 4.047 0.159
14:12 1010 29.83 839 24.78 3.4 38 38 -9.8 14.4 3.877 0.153
14:13 1010 29.83 839 24.78 3.2 37.7 35 -10.8 12.5 3.674 0.145
14:14 1010 29.83 839 24.78 3.1 37.6 37 -10.4 13.3 3.572 0.141
14:15 1010 29.83 839 24.78 3.1 37.5 39 -9.7 14.6 3.612 0.142
14:16 1010 29.83 839 24.78 2.9 37.3 41 -9.1 15.7 3.493 0.138
14:17 1010 29.83 839 24.78 2.9 37.2 36 -10.9 12.3 3.357 0.132
14:18 1010 29.83 839 24.78 2.8 37 40 -9.6 14.7 3.312 0.13
14:19 1010 29.83 839 24.78 2.7 36.9 40 -9.5 15 3.278 0.129
14:20 1010 29.83 839 24.78 2.7 36.9 35 -11.2 11.8 3.267 0.129
14:21 1010 29.83 839 24.78 2.8 37 41 -9.2 15.5 3.312 0.13
14:22 1010 29.83 839 24.78 2.8 37 38 -10.3 13.5 3.335 0.131
14:23 1010 29.83 839 24.78 2.7 36.9 35 -11.3 11.6 3.312 0.13
14:24 1010 29.83 839 24.78 2.8 37 35 -11.2 11.9 3.329 0.131
14:25 1010 29.83 839 24.78 2.7 36.9 39 -9.9 14.2 3.244 0.128
14:26 1010 29.83 839 24.78 2.7 36.9 39 -10 14 3.261 0.128
14:27 1010 29.83 839 24.78 2.7 36.9 39 -9.8 14.3 3.346 0.132
14:28 1010 29.83 839 24.78 2.7 36.9 42 -9 15.8 3.267 0.129
14:29 1010 29.83 839 24.78 2.7 36.9 41 -9.3 15.3 3.25 0.128
14:30 1010 29.83 839 24.78 2.7 36.8 43 -8.8 16.2 3.216 0.127
14:31 1010 29.83 839 24.78 2.6 36.7 43 -8.8 16.1 3.091 0.122
14:32 1010 29.83 839 24.78 2.5 36.5 41 -9.4 15.1 2.967 0.117
14:33 1010 29.83 839 24.78 2.4 36.4 44 -8.7 16.3 2.894 0.114
14:34 1010 29.83 839 24.78 2.4 36.3 46 -8.1 17.5 2.933 0.115
14:35 1010 29.83 839 24.78 2.3 36.2 44 -8.8 16.1 2.848 0.112
14:36 1010 29.83 839 24.78 2.2 36 44 -8.9 16 2.724 0.107
14:37 1010 29.83 839 24.78 2.2 35.9 44 -8.8 16.2 2.707 0.107
14:38 1010 29.83 839 24.78 2.2 35.9 48 -7.7 18.1 2.69 0.106
14:39 1010 29.83 839 24.78 2.2 36 45 -8.6 16.5 2.747 0.108
14:40 1010 29.83 839 24.78 2.3 36.1 46 -8.3 17.1 2.769 0.109
14:41 1010 29.83 839 24.78 2.3 36.1 39 -10.3 13.5 2.82 0.111
14:42 1010 29.83 839 24.78 2.3 36.2 43 -9.1 15.6 2.769 0.109
14:43 1010 29.83 839 24.78 2.3 36.2 44 -8.8 16.1 2.82 0.111
14:44 1010 29.83 839 24.78 2.4 36.3 41 -9.5 14.8 2.882 0.113
14:45 1010 29.83 839 24.78 2.4 36.3 39 -10.3 13.5 2.905 0.114
14:46 1010 29.83 839 24.78 2.4 36.3 44 -8.8 16.2 2.871 0.113
14:47 1010 29.83 839 24.78 2.5 36.4 44 -8.5 16.7 2.933 0.115
14:48 1010 29.83 839 24.78 2.4 36.4 43 -9.1 15.7 2.893 0.114
14:49 1010 29.83 839 24.78 2.4 36.3 49 -7.3 18.8 2.826 0.111
14:50 1010 29.83 839 24.78 2.3 36.2 45 -8.4 16.8 2.803 0.11
14:51 1010 29.83 839 24.78 2.3 36.2 45 -8.4 16.9 2.837 0.112
14:52 1010 29.83 839 24.78 2.3 36.1 44 -8.8 16.2 2.803 0.11
14:53 1010 29.83 839 24.78 2.3 36.2 44 -8.7 16.3 2.797 0.11
14:54 1010 29.83 839 24.78 2.3 36.2 47 -7.9 17.7 2.826 0.111
14:55 1010 29.83 839 24.78 2.3 36.2 43 -9.2 15.5 2.814 0.111
14:56 1010 29.83 839 24.78 2.3 36.1 43 -9 15.7 2.758 0.109
14:57 1010 29.83 839 24.78 2.2 36 48 -7.5 18.4 2.73 0.107
14:58 1010 29.83 839 24.78 2.2 36 49 -7.4 18.7 2.707 0.107
14:59 1010 29.83 839 24.78 2.2 35.9 48 -7.6 18.2 2.662 0.105
15:00 1010 29.83 839 24.78 2.1 35.8 51 -7 19.4 2.588 0.102
15:01 1010 29.83 839 24.78 2.1 35.8 47 -8 17.5 2.583 0.102
15:02 1010 29.83 839 24.78 2.1 35.8 48 -7.8 17.9 2.599 0.102
15:03 1010 29.83 839 24.78 2.1 35.8 46 -8.4 16.8 2.594 0.102
15:04 1010 29.83 839 24.78 2.1 35.8 47 -7.9 17.7 2.594 0.102
15:05 1010 29.83 839 24.78 2.1 35.9 45 -8.7 16.4 2.65 0.104
15:06 1010 29.83 839 24.78 2.2 35.9 44 -8.9 16 2.673 0.105
15:07 1010 29.83 839 24.78 2.2 36 50 -7.1 19.2 2.707 0.107
15:08 1010 29.83 839 24.78 2.2 36 44 -8.8 16.2 2.701 0.106
15:09 1010 29.83 839 24.78 2.2 36 43 -9 15.8 2.724 0.107
15:10 1010 29.83 839 24.78 2.3 36.1 45 -8.5 16.6 2.713 0.107
15:11 1010 29.83 839 24.78 2.3 36.1 44 -8.8 16.1 2.803 0.11
15:12 1010 29.83 839 24.78 2.3 36.2 45 -8.4 16.9 2.831 0.111
15:13 1010 29.83 839 24.78 2.4 36.4 42 -9.4 15.2 2.961 0.117
15:14 1010 29.83 839 24.78 2.5 36.5 42 -9 15.8 3.029 0.119
15:15 1010 29.83 839 24.78 2.5 36.5 45 -8.3 17.1 3.047 0.12
15:16 1010 29.83 839 24.78 2.5 36.6 48 -7.5 18.6 3.042 0.12
15:17 1010 29.83 839 24.78 2.5 36.6 47 -7.6 18.4 3.098 0.122
15:18 1010 29.83 839 24.78 2.6 36.7 46 -7.8 17.9 3.094 0.122
15:19 1010 29.83 839 24.78 2.6 36.8 43 -8.8 16.2 3.145 0.124
15:20 1010 29.83 839 24.78 2.7 36.8 45 -8.1 17.5 3.201 0.126
15:21 1010 29.83 839 24.78 2.7 36.8 49 -7 19.5 3.191 0.126
15:22 1010 29.83 839 24.78 2.8 37 51 -6.4 20.4 3.259 0.128
15:23 1010 29.83 839 24.78 2.7 36.9 45 -7.9 17.7 3.304 0.13
15:24 1010 29.83 839 24.78 2.7 36.9 44 -8.4 16.9 3.267 0.129
15:25 1010 29.83 839 24.78 2.7 36.9 42 -8.9 16 3.244 0.128
15:26 1010 29.83 839 24.78 2.7 36.9 48 -7.1 19.3 3.273 0.129
15:27 1010 29.83 839 24.78 2.8 37 44 -8.4 16.8 3.28 0.129
15:28 1010 29.83 839 24.78 2.8 37 43 -8.7 16.3 3.308 0.13
15:29 1010 29.83 839 24.78 2.9 37.2 43 -8.4 16.8 3.427 0.135
15:30 1010 29.83 839 24.78 2.9 37.3 38 -10.1 13.9 3.457 0.136
15:31 1010 29.83 839 24.78 2.9 37.3 38 -10.1 13.8 3.411 0.134
15:32 1010 29.83 839 24.78 2.9 37.2 41 -9.2 15.5 3.417 0.135
15:33 1010 29.83 839 24.78 2.9 37.3 42 -8.7 16.4 3.446 0.136
15:34 1010 29.83 839 24.78 3 37.4 47 -7.3 18.9 3.48 0.137
15:35 1010 29.83 839 24.78 3.1 37.6 40 -9.4 15.1 3.577 0.141
15:36 1010 29.83 839 24.78 3.1 37.7 44 -8 17.6 3.634 0.143
15:37 1009 29.8 839 24.78 3.2 37.7 45 -7.7 18.2 3.628 0.143
15:38 1010 29.83 839 24.78 3.1 37.7 35 -10.7 12.7 3.64 0.143
15:39 1009 29.8 839 24.78 3.1 37.5 39 -9.6 14.7 3.555 0.14
15:40 1009 29.8 839 24.78 3 37.4 43 -8.4 16.9 3.533 0.139
15:41 1010 29.83 839 24.78 2.9 37.3 41 -9.1 15.5 3.426 0.135
15:42 1009 29.8 839 24.78 2.8 37 41 -9.1 15.6 3.228 0.127
15:43 1009 29.8 839 24.78 2.7 36.9 45 -8 17.7 3.177 0.125
15:44 1009 29.8 839 24.78 2.7 36.9 48 -7.1 19.3 3.24 0.128
15:45 1009 29.8 839 24.78 2.8 37 44 -8.2 17.2 3.268 0.129
15:46 1009 29.8 839 24.78 2.8 37.1 44 -8.2 17.3 3.251 0.128
15:47 1009 29.8 838 24.75 2.8 37 39 -10 14.1 3.251 0.128
15:48 1009 29.8 839 24.78 2.8 37 47 -7.3 18.8 3.252 0.128
15:49 1009 29.8 838 24.75 2.9 37.2 44 -8.3 17.1 3.353 0.132
15:50 1009 29.8 839 24.78 2.9 37.2 42 -8.7 16.3 3.354 0.132
15:51 1009 29.8 839 24.78 2.9 37.2 42 -8.8 16.2 3.365 0.132
15:52 1009 29.8 839 24.78 2.9 37.3 43 -8.4 16.8 3.393 0.134
15:53 1009 29.8 838 24.75 2.9 37.2 43 -8.6 16.5 3.393 0.134
15:54 1009 29.8 839 24.78 3 37.3 41 -9.2 15.5 3.433 0.135
15:55 1009 29.8 838 24.75 2.9 37.3 42 -8.7 16.4 3.433 0.135
15:56 1009 29.8 838 24.75 2.9 37.3 42 -8.8 16.2 3.411 0.134
15:57 1009 29.8 838 24.75 2.9 37.3 48 -7 19.4 3.456 0.136
15:58 1009 29.8 838 24.75 2.9 37.3 39 -9.9 14.2 3.433 0.135
15:59 1009 29.8 838 24.75 2.9 37.2 40 -9.5 14.9 3.32 0.131
16:00 1009 29.8 838 24.75 2.8 37.1 43 -8.7 16.4 3.326 0.131
16:01 1009 29.8 838 24.75 2.8 37.1 45 -7.9 17.8 3.303 0.13
16:02 1009 29.8 838 24.75 2.8 37 46 -7.7 18.1 3.275 0.129
16:03 1009 29.8 838 24.75 2.7 36.9 42 -8.8 16.1 3.241 0.128
16:04 1009 29.8 838 24.75 2.7 36.8 42 -9.1 15.7 3.207 0.126
16:05 1009 29.8 838 24.75 2.7 36.8 42 -9 15.8 3.207 0.126
16:06 1009 29.8 838 24.75 2.7 36.8 40 -9.6 14.7 3.258 0.128
16:07 1009 29.8 838 24.75 2.7 36.8 44 -8.4 16.9 3.224 0.127
16:08 1009 29.8 838 24.75 2.7 36.9 42 -8.9 16 3.219 0.127
16:09 1009 29.8 838 24.75 2.7 36.8 44 -8.3 17.1 3.241 0.128
16:10 1009 29.8 838 24.75 2.7 36.8 42 -8.9 15.9 3.157 0.124
16:11 1009 29.8 838 24.75 2.6 36.6 46 -8 17.5 3.089 0.122
16:12 1009 29.8 838 24.75 2.5 36.5 41 -9.3 15.2 2.959 0.116
16:13 1009 29.8 838 24.75 2.5 36.4 44 -8.7 16.3 2.925 0.115
16:14 1009 29.8 838 24.75 2.4 36.4 42 -9.1 15.6 2.868 0.113
16:15 1009 29.8 839 24.78 2.4 36.3 43 -8.9 16 2.846 0.112
16:16 1009 29.8 838 24.75 2.4 36.3 49 -7.1 19.2 2.834 0.112
16:17 1009 29.8 839 24.78 2.4 36.3 38 -10.4 13.3 2.874 0.113
16:18 1009 29.8 839 24.78 2.4 36.4 46 -7.9 17.7 2.88 0.113
16:19 1009 29.8 839 24.78 2.4 36.4 44 -8.5 16.6 2.902 0.114
16:20 1009 29.8 838 24.75 2.5 36.4 43 -8.8 16.1 2.868 0.113
16:21 1009 29.8 838 24.75 2.4 36.4 38 -10.4 13.3 2.874 0.113
16:22 1009 29.8 839 24.78 2.4 36.4 42 -9.1 15.6 2.88 0.113
16:23 1009 29.8 838 24.75 2.4 36.4 45 -8.3 17 2.897 0.114
16:24 1009 29.8 839 24.78 2.4 36.3 45 -8.3 17.1 2.863 0.113
16:25 1009 29.8 839 24.78 2.4 36.4 43 -9 15.9 2.908 0.114
16:26 1009 29.8 839 24.78 2.5 36.4 42 -9.3 15.3 2.931 0.115
16:27 1009 29.8 839 24.78 2.6 36.6 43 -8.8 16.2 2.964 0.117
16:28 1009 29.8 839 24.78 2.6 36.6 43 -8.7 16.3 3.049 0.12
16:29 1009 29.8 839 24.78 2.6 36.6 41 -9.4 15.1 3.021 0.119
16:30 1009 29.8 839 24.78 2.6 36.7 39 -10 14 3.066 0.121
16:31 1009 29.8 838 24.75 2.7 36.8 40 -9.7 14.5 3.129 0.123
16:32 1009 29.8 838 24.75 2.7 36.9 45 -8.1 17.4 3.23 0.127
16:33 1009 29.8 838 24.75 2.8 37 40 -9.6 14.6 3.264 0.129
16:34 1009 29.8 839 24.78 2.8 37 44 -8.2 17.3 3.236 0.127
16:35 1009 29.8 838 24.75 2.8 37 44 -8.2 17.3 3.281 0.129
16:36 1009 29.8 839 24.78 2.8 37.1 41 -9 15.8 3.338 0.131
16:37 1009 29.8 839 24.78 2.8 37.1 39 -9.8 14.3 3.36 0.132
16:38 1009 29.8 839 24.78 2.8 37.1 43 -8.7 16.4 3.321 0.131
16:39 1009 29.8 839 24.78 2.9 37.2 37 -10.4 13.3 3.349 0.132
16:40 1009 29.8 839 24.78 2.8 37.1 34 -11.7 10.9 3.321 0.131
16:41 1009 29.8 839 24.78 2.8 37 37 -10.5 13.1 3.242 0.128
16:42 1009 29.8 839 24.78 2.8 37 46 -7.8 17.9 3.213 0.126
16:43 1009 29.8 839 24.78 2.8 37 38 -10.2 13.7 3.259 0.128
16:44 1009 29.8 839 24.78 2.7 36.9 40 -9.5 14.9 3.225 0.127
16:45 1009 29.8 839 24.78 2.7 36.8 43 -8.6 16.5 3.146 0.124
16:46 1009 29.8 839 24.78 2.6 36.7 41 -9.2 15.4 3.106 0.122
16:47 1009 29.8 839 24.78 2.6 36.6 46 -7.9 17.8 3.032 0.119
16:48 1009 29.8 839 24.78 2.5 36.6 41 -9.4 15 3.021 0.119
16:49 1009 29.8 839 24.78 2.5 36.5 41 -9.5 14.9 2.936 0.116
16:50 1009 29.8 839 24.78 2.4 36.3 44 -8.6 16.6 2.863 0.113
16:51 1009 29.8 839 24.78 2.3 36.2 43 -9 15.7 2.823 0.111
16:52 1009 29.8 839 24.78 2.3 36.2 42 -9.2 15.4 2.778 0.109
16:53 1009 29.8 839 24.78 2.3 36.2 46 -8.3 17.1 2.761 0.109
16:54 1009 29.8 839 24.78 2.3 36.2 47 -7.8 18 2.834 0.112
16:55 1009 29.8 839 24.78 2.4 36.3 41 -9.6 14.8 2.868 0.113
16:56 1009 29.8 839 24.78 2.4 36.3 44 -8.7 16.4 2.812 0.111
16:57 1009 29.8 839 24.78 2.4 36.3 50 -7.1 19.3 2.874 0.113
16:58 1009 29.8 839 24.78 2.4 36.3 45 -8.3 17.1 2.868 0.113
16:59 1009 29.8 839 24.78 2.5 36.4 48 -7.6 18.4 2.97 0.117
17:00 1009 29.8 839 24.78 2.5 36.4 47 -7.7 18.2 2.97 0.117
17:01 1009 29.8 839 24.78 2.5 36.4 50 -6.9 19.6 2.982 0.117
17:02 1009 29.8 839 24.78 2.4 36.4 40 -9.8 14.4 2.936 0.116
17:03 1009 29.8 839 24.78 2.4 36.2 45 -8.4 16.9 2.846 0.112
17:04 1009 29.8 839 24.78 2.3 36.1 46 -8.3 17.1 2.801 0.11
17:05 1009 29.8 839 24.78 2.3 36.1 49 -7.5 18.6 2.761 0.109
17:06 1009 29.8 839 24.78 2.2 36 49 -7.4 18.6 2.716 0.107
17:07 1009 29.8 839 24.78 2.2 36 59 -5 23 2.693 0.106
17:08 1009 29.8 839 24.78 2.2 35.9 55 -5.8 21.5 2.699 0.106
17:09 1009 29.8 839 24.78 2.1 35.8 54 -6.2 20.8 2.631 0.104
17:10 1009 29.8 839 24.78 2.1 35.8 54 -6.3 20.7 2.574 0.101
17:11 1009 29.8 839 24.78 2.1 35.7 56 -5.8 21.6 2.54 0.1
17:12 1009 29.8 839 24.78 2 35.6 58 -5.4 22.2 2.512 0.099
17:13 1009 29.8 839 24.78 2 35.7 56 -5.8 21.6 2.512 0.099
17:14 1009 29.8 839 24.78 2 35.6 49 -7.5 18.5 2.506 0.099
17:15 1009 29.8 839 24.78 2 35.6 50 -7.4 18.7 2.501 0.098
17:16 1009 29.8 839 24.78 2 35.6 52 -6.8 19.7 2.569 0.101
17:17 1009 29.8 839 24.78 2.1 35.7 56 -5.7 21.7 2.608 0.103
17:18 1009 29.8 839 24.78 2.1 35.8 58 -5.4 22.3 2.654 0.104
17:19 1009 29.8 839 24.78 2.1 35.7 59 -5.2 22.7 2.648 0.104
17:20 1009 29.8 839 24.78 2.1 35.8 52 -6.8 19.7 2.637 0.104
17:21 1009 29.8 839 24.78 2 35.7 54 -6.3 20.7 2.586 0.102
17:22 1009 29.8 839 24.78 2 35.6 52 -6.9 19.7 2.591 0.102
17:23 1009 29.8 839 24.78 2 35.7 57 -5.7 21.7 2.631 0.104
17:24 1009 29.8 839 24.78 2 35.7 53 -6.6 20 2.632 0.104
17:25 1009 29.8 839 24.78 2.1 35.8 53 -6.5 20.3 2.621 0.103
17:26 1009 29.8 839 24.78 2 35.7 56 -5.9 21.4 2.661 0.105
17:27 1009 29.8 839 24.78 2 35.7 54 -6.4 20.4 2.639 0.104
17:28 1009 29.8 839 24.78 2 35.7 53 -6.5 20.4 2.611 0.103
17:29 1009 29.8 839 24.78 2 35.6 53 -6.6 20.1 2.6 0.102
17:30 1009 29.8 839 24.78 2 35.6 53 -6.5 20.3 2.572 0.101
17:31 1009 29.8 839 24.78 2.1 35.7 56 -5.8 21.5 2.629 0.104
17:32 1009 29.8 839 24.78 2 35.6 57 -5.6 21.8 2.64 0.104
17:33 1009 29.8 839 24.78 2 35.6 59 -5.2 22.7 2.654 0.104
17:34 1009 29.8 839 24.78 2 35.6 58 -5.4 22.3 2.614 0.103
17:35 1009 29.8 839 24.78 1.9 35.5 61 -4.8 23.3 2.603 0.102
17:36 1009 29.8 839 24.78 1.9 35.4 59 -5.3 22.5 2.535 0.1
17:37 1009 29.8 839 24.78 1.9 35.4 61 -4.9 23.1 2.535 0.1
17:38 1009 29.8 839 24.78 1.9 35.4 61 -4.8 23.3 2.496 0.098
17:39 1009 29.8 839 24.78 1.9 35.3 61 -4.9 23.2 2.492 0.098
17:40 1009 29.8 839 24.78 1.9 35.3 61 -5 23 2.458 0.097
17:41 1009 29.8 839 24.78 1.9 35.3 60 -5.1 22.8 2.452 0.097
17:42 1009 29.8 839 24.78 1.8 35.3 60 -5 23 2.448 0.096
17:43 1009 29.8 839 24.78 1.9 35.4 58 -5.5 22.2 2.408 0.095
17:44 1009 29.8 839 24.78 1.9 35.4 57 -5.7 21.7 2.408 0.095
17:45 1009 29.8 839 24.78 1.9 35.4 59 -5.2 22.6 2.432 0.096
17:46 1009 29.8 839 24.78 1.9 35.4 61 -4.9 23.2 2.415 0.095
17:47 1009 29.8 839 24.78 1.9 35.4 59 -5.4 22.3 2.375 0.094
17:48 1009 29.8 839 24.78 1.8 35.3 59 -5.3 22.5 2.359 0.093
17:49 1009 29.8 839 24.78 1.8 35.3 59 -5.2 22.6 2.37 0.093
17:50 1009 29.8 839 24.78 1.8 35.3 62 -4.6 23.6 2.354 0.093
17:51 1010 29.83 839 24.78 1.8 35.3 58 -5.5 22.1 2.337 0.092
17:52 1010 29.83 839 24.78 1.8 35.3 59 -5.3 22.5 2.337 0.092
17:53 1010 29.83 839 24.78 1.8 35.3 61 -4.8 23.3 2.377 0.094
17:54 1010 29.83 839 24.78 1.8 35.3 59 -5.2 22.6 2.355 0.093
17:55 1010 29.83 839 24.78 1.8 35.3 58 -5.5 22.2 2.372 0.093
17:56 1010 29.83 839 24.78 1.8 35.3 59 -5.4 22.3 2.361 0.093
17:57 1010 29.83 839 24.78 1.9 35.4 61 -4.9 23.2 2.395 0.094
17:58 1010 29.83 839 24.78 1.9 35.4 59 -5.4 22.4 2.383 0.094
17:59 1010 29.83 839 24.78 1.9 35.4 60 -5 23.1 2.367 0.093
18:00 1010 29.83 839 24.78 1.9 35.4 64 -4.1 24.6 2.406 0.095
18:01 1010 29.83 839 24.78 1.8 35.3 61 -4.8 23.3 2.401 0.095
18:02 1010 29.83 839 24.78 1.9 35.3 60 -5 23 2.367 0.093
18:03 1010 29.83 839 24.78 1.9 35.5 57 -5.6 21.9 2.361 0.093
18:04 1010 29.83 839 24.78 1.9 35.4 59 -5.3 22.4 2.401 0.095
18:05 1010 29.83 839 24.78 1.9 35.4 60 -5.1 22.8 2.401 0.095
18:06 1010 29.83 839 24.78 1.9 35.4 57 -5.8 21.6 2.39 0.094
18:07 1010 29.83 839 24.78 1.9 35.4 56 -6 21.2 2.39 0.094
18:08 1010 29.83 839 24.78 1.9 35.5 56 -6 21.1 2.424 0.095
18:09 1010 29.83 839 24.78 2 35.5 57 -5.7 21.7 2.43 0.096
18:10 1010 29.83 839 24.78 1.9 35.5 61 -4.7 23.5 2.503 0.099
18:11 1010 29.83 839 24.78 1.9 35.5 57 -5.6 21.8 2.498 0.098
18:12 1010 29.83 839 24.78 1.9 35.4 59 -5.3 22.4 2.469 0.097
18:13 1010 29.83 839 24.78 1.9 35.4 57 -5.7 21.7 2.447 0.096
18:14 1010 29.83 839 24.78 1.9 35.3 58 -5.4 22.2 2.39 0.094
18:15 1010 29.83 839 24.78 1.8 35.3 59 -5.3 22.5 2.356 0.093
18:16 1010 29.83 839 24.78 1.8 35.3 58 -5.7 21.8 2.362 0.093
18:17 1010 29.83 839 24.78 1.8 35.2 59 -5.4 22.3 2.317 0.091
18:18 1010 29.83 839 24.78 1.8 35.3 60 -5.3 22.5 2.356 0.093
18:19 1010 29.83 839 24.78 1.8 35.3 61 -5 23 2.311 0.091
18:20 1010 29.83 839 24.78 1.8 35.2 59 -5.3 22.4 2.3 0.091
18:21 1010 29.83 839 24.78 1.7 35.1 61 -5 23 2.272 0.089
18:22 1010 29.83 839 24.78 1.7 35 59 -5.4 22.3 2.272 0.089
18:23 1010 29.83 839 24.78 1.7 35.1 62 -4.8 23.4 2.243 0.088
18:24 1010 29.83 839 24.78 1.7 35 62 -4.7 23.5 2.215 0.087
18:25 1010 29.83 839 24.78 1.6 34.9 60 -5.4 22.2 2.142 0.084
18:26 1010 29.83 839 24.78 1.6 34.9 60 -5.4 22.3 2.125 0.084
18:27 1009 29.8 839 24.78 1.6 34.9 60 -5.4 22.3 2.136 0.084
18:28 1009 29.8 839 24.78 1.6 34.9 61 -5 23 2.113 0.083
18:29 1009 29.8 839 24.78 1.6 34.9 61 -5 22.9 2.113 0.083
18:30 1009 29.8 839 24.78 1.6 34.8 60 -5.3 22.5 2.091 0.082
18:31 1009 29.8 839 24.78 1.6 34.8 64 -4.4 24 2.108 0.083
18:32 1009 29.8 839 24.78 1.5 34.7 64 -4.6 23.7 2.046 0.081
18:33 1009 29.8 838 24.75 1.5 34.7 64 -4.6 23.7 2.012 0.079
18:34 1009 29.8 839 24.78 1.4 34.5 64 -4.6 23.7 1.983 0.078
18:35 1009 29.8 839 24.78 1.4 34.5 64 -4.6 23.7 1.949 0.077
18:36 1009 29.8 839 24.78 1.4 34.5 64 -4.7 23.6 1.899 0.075
18:37 1009 29.8 839 24.78 1.4 34.5 65 -4.4 24.1 1.938 0.076
18:38 1009 29.8 839 24.78 1.4 34.4 65 -4.5 23.9 1.915 0.075
18:39 1009 29.8 838 24.75 1.4 34.5 66 -4.4 24.2 1.887 0.074
18:40 1009 29.8 839 24.78 1.3 34.4 67 -4.2 24.4 1.865 0.073
18:41 1009 29.8 838 24.75 1.3 34.3 66 -4.3 24.3 1.831 0.072
18:42 1009 29.8 838 24.75 1.3 34.3 68 -3.9 25 1.785 0.07
18:43 1009 29.8 839 24.78 1.3 34.3 69 -3.7 25.3 1.775 0.07
18:44 1009 29.8 838 24.75 1.3 34.3 70 -3.6 25.5 1.781 0.07
18:45 1009 29.8 838 24.75 1.3 34.3 70 -3.6 25.4 1.804 0.071
18:46 1009 29.8 838 24.75 1.3 34.4 65 -4.5 23.8 1.793 0.071
18:47 1009 29.8 839 24.78 1.4 34.4 69 -3.7 25.3 1.788 0.07
18:48 1009 29.8 839 24.78 1.3 34.4 70 -3.6 25.5 1.884 0.074
18:49 1009 29.8 839 24.78 1.4 34.4 67 -4 24.8 1.845 0.073
18:50 1009 29.8 839 24.78 1.3 34.4 68 -4 24.7 1.783 0.07
18:51 1009 29.8 839 24.78 1.3 34.3 68 -4 24.8 1.783 0.07
18:52 1009 29.8 839 24.78 1.3 34.4 69 -3.8 25.1 1.806 0.071
18:53 1009 29.8 839 24.78 1.3 34.4 67 -4.1 24.5 1.778 0.07
18:54 1009 29.8 839 24.78 1.3 34.3 68 -3.9 24.9 1.733 0.068
18:55 1009 29.8 839 24.78 1.3 34.3 67 -4.1 24.6 1.716 0.068
18:56 1009 29.8 839 24.78 1.2 34.2 66 -4.5 23.9 1.694 0.067
18:57 1009 29.8 839 24.78 1.2 34.1 66 -4.5 23.8 1.654 0.065
18:58 1009 29.8 839 24.78 1.2 34.2 66 -4.4 24 1.672 0.066
18:59 1009 29.8 839 24.78 1.2 34.1 66 -4.4 24.1 1.627 0.064
19:00 1009 29.8 839 24.78 1.1 34.1 67 -4.2 24.4 1.638 0.064
19:01 1009 29.8 839 24.78 1.1 34 68 -4.2 24.5 1.577 0.062
19:02 1009 29.8 839 24.78 1.1 33.9 67 -4.4 24.1 1.566 0.062
19:03 1009 29.8 839 24.78 1.1 33.9 68 -4.3 24.3 1.532 0.06
19:04 1009 29.8 839 24.78 1 33.8 68 -4.3 24.3 1.511 0.059
19:05 1009 29.8 839 24.78 1 33.8 68 -4.3 24.2 1.483 0.058
19:06 1009 29.8 839 24.78 1 33.7 68 -4.3 24.3 1.46 0.057
19:07 1009 29.8 839 24.78 1 33.7 69 -4.1 24.5 1.422 0.056
19:08 1009 29.8 839 24.78 0.9 33.7 69 -4.1 24.7 1.439 0.057
19:09 1009 29.8 839 24.78 0.9 33.6 70 -4 24.8 1.371 0.054
19:10 1009 29.8 839 24.78 0.9 33.6 68 -4.3 24.2 1.372 0.054
19:11 1009 29.8 839 24.78 0.9 33.6 68 -4.3 24.2 1.355 0.053
19:12 1009 29.8 839 24.78 1 33.7 67 -4.5 23.8 1.411 0.056
19:13 1009 29.8 839 24.78 1 33.8 67 -4.5 23.8 1.423 0.056
19:14 1009 29.8 839 24.78 1.1 33.9 66 -4.6 23.8 1.457 0.057
19:15 1009 29.8 839 24.78 1.1 34 66 -4.5 24 1.486 0.059
19:16 1009 29.8 839 24.78 1 33.9 67 -4.4 24.1 1.458 0.057
19:17 1009 29.8 839 24.78 1 33.8 69 -4.1 24.6 1.441 0.057
19:18 1009 29.8 839 24.78 1 33.8 69 -4 24.7 1.401 0.055
19:19 1009 29.8 839 24.78 0.9 33.6 69 -4.1 24.5 1.368 0.054
19:20 1009 29.8 839 24.78 0.9 33.6 69 -4.2 24.5 1.288 0.051
19:21 1009 29.8 839 24.78 0.8 33.5 69 -4.2 24.5 1.249 0.049
19:22 1009 29.8 839 24.78 0.8 33.4 70 -4.1 24.5 1.215 0.048
19:23 1009 29.8 839 24.78 0.7 33.3 71 -4 24.8 1.159 0.046
19:24 1009 29.8 839 24.78 0.6 33.1 72 -3.9 24.9 1.097 0.043
19:25 1009 29.8 839 24.78 0.5 33 71 -4 24.7 1.023 0.04
19:26 1009 29.8 839 24.78 0.5 32.8 72 -4 24.8 .927 0.036
19:27 1009 29.8 839 24.78 0.5 32.8 72 -4.1 24.7 .87 0.034
19:28 1009 29.8 839 24.78 0.4 32.8 72 -4 24.8 .837 0.033
19:29 1009 29.8 839 24.78 0.4 32.6 71 -4.2 24.4 .774 0.03
19:30 1009 29.8 839 24.78 0.4 32.8 71 -4.2 24.5 .757 0.03
19:31 1009 29.8 839 24.78 0.4 32.7 71 -4.3 24.3 .741 0.029
19:32 1009 29.8 839 24.78 0.4 32.7 70 -4.4 24.1 .775 0.031
19:33 1009 29.8 839 24.78 0.4 32.8 70 -4.4 24.1 .741 0.029
19:34 1009 29.8 839 24.78 0.4 32.7 71 -4.3 24.3 .729 0.029
19:35 1009 29.8 839 24.78 0.3 32.6 72 -4.2 24.4 .679 0.027
19:36 1009 29.8 839 24.78 0.3 32.5 71 -4.4 24 .667 0.026
19:37 1009 29.8 839 24.78 0.3 32.5 71 -4.3 24.2 .633 0.025
19:38 1009 29.8 839 24.78 0.3 32.6 71 -4.3 24.2 .662 0.026
19:39 1009 29.8 839 24.78 0.3 32.5 71 -4.3 24.2 .645 0.025
19:40 1009 29.8 839 24.78 0.3 32.5 71 -4.4 24 .577 0.023
19:41 1009 29.8 839 24.78 0.2 32.4 71 -4.5 23.9 .543 0.021
19:42 1009 29.8 839 24.78 0.2 32.4 70 -4.5 23.8 .554 0.022
19:43 1009 29.8 839 24.78 0.2 32.4 71 -4.5 24 .577 0.023
19:44 1009 29.8 839 24.78 0.2 32.3 71 -4.5 23.9 .515 0.02
19:45 1009 29.8 839 24.78 0.2 32.3 70 -4.7 23.6 .509 0.02
19:46 1009 29.8 839 24.78 0.2 32.4 69 -4.8 23.4 .532 0.021
19:47 1009 29.8 839 24.78 0.3 32.6 69 -4.7 23.6 .617 0.024
19:48 1009 29.8 839 24.78 0.4 32.7 70 -4.5 23.8 .634 0.025
19:49 1009 29.8 839 24.78 0.3 32.6 70 -4.6 23.8 .645 0.025
19:50 1009 29.8 839 24.78 0.3 32.6 70 -4.5 23.9 .651 0.026
19:51 1009 29.8 839 24.78 0.3 32.6 70 -4.5 24 .645 0.025
19:52 1009 29.8 839 24.78 0.3 32.6 70 -4.4 24 .656 0.026
19:53 1009 29.8 839 24.78 0.2 32.4 70 -4.5 23.9 .571 0.022
19:54 1009 29.8 839 24.78 0.2 32.4 71 -4.5 23.9 .526 0.021
19:55 1009 29.8 839 24.78 0.2 32.4 71 -4.4 24 .537 0.021
19:56 1009 29.8 839 24.78 0.1 32.3 72 -4.4 24.1 .515 0.02
19:57 1009 29.8 839 24.78 0.1 32.1 72 -4.4 24.1 .436 0.017
19:58 1009 29.8 839 24.78 0.1 32.1 73 -4.3 24.2 .419 0.016
19:59 1009 29.8 839 24.78 -0 31.9 73 -4.3 24.3 .323 0.013
20:00 1009 29.8 839 24.78 -0.1 31.9 73 -4.3 24.2 .324 0.013
20:01 1009 29.8 839 24.78 -0.1 31.8 73 -4.3 24.2 .29 0.011
20:02 1009 29.8 839 24.78 -0.2 31.7 74 -4.2 24.5 .2 0.008
20:03 1009 29.8 839 24.78 -0.3 31.5 75 -4.1 24.6 .138 0.005
20:04 1009 29.8 839 24.78 -0.4 31.2 76 -4.1 24.6 -.015 -0.001
20:05 1009 29.8 839 24.78 -0.6 30.9 76 -4.3 24.3 -.178 -0.007
20:06 1009 29.8 839 24.78 -0.7 30.8 77 -4.3 24.3 -.297 -0.012
20:07 1009 29.8 839 24.78 -0.8 30.6 78 -4.2 24.4 -.37 -0.015
20:08 1009 29.8 839 24.78 -0.8 30.5 79 -4.1 24.6 -.415 -0.016
20:09 1009 29.8 839 24.78 -0.9 30.4 79 -4.1 24.6 -.483 -0.019
20:10 1009 29.8 839 24.78 -1 30.3 79 -4.1 24.5 -.522 -0.021
20:11 1010 29.83 839 24.78 -1 30.2 79 -4.2 24.4 -.595 -0.023
20:12 1010 29.83 839 24.78 -1 30.2 79 -4.2 24.4 -.577 -0.023
20:13 1010 29.83 839 24.78 -1 30.1 79 -4.2 24.4 -.622 -0.024
20:14 1010 29.83 839 24.78 -1.1 30.1 79 -4.2 24.5 -.617 -0.024
20:15 1010 29.83 839 24.78 -1.1 29.9 79 -4.3 24.3 -.741 -0.029
20:16 1010 29.83 839 24.78 -1.2 29.8 79 -4.4 24.1 -.798 -0.031
20:17 1010 29.83 839 24.78 -1.2 29.9 79 -4.4 24.1 -.774 -0.03
20:18 1010 29.83 839 24.78 -1.2 29.9 79 -4.4 24 -.802 -0.032
20:19 1010 29.83 839 24.78 -1.2 29.8 78 -4.5 23.9 -.813 -0.032
20:20 1010 29.83 839 24.78 -1.2 29.8 78 -4.5 23.9 -.835 -0.033
20:21 1010 29.83 839 24.78 -1.2 29.8 78 -4.5 23.8 -.829 -0.033
20:22 1010 29.83 839 24.78 -1.2 29.8 78 -4.6 23.8 -.852 -0.034
20:23 1010 29.83 839 24.78 -1.3 29.7 79 -4.5 23.8 -.913 -0.036
20:24 1010 29.83 839 24.78 -1.4 29.5 79 -4.5 23.9 -.981 -0.039
20:25 1010 29.83 839 24.78 -1.4 29.5 79 -4.6 23.7 -.992 -0.039
20:26 1010 29.83 839 24.78 -1.3 29.7 78 -4.7 23.5 -.969 -0.038
20:27 1010 29.83 839 24.78 -1.2 29.9 76 -4.9 23.1 -.861 -0.034
20:28 1010 29.83 839 24.78 -1.1 30.1 75 -4.9 23.2 -.759 -0.03
20:29 1010 29.83 839 24.78 -0.9 30.3 74 -5 23 -.623 -0.025
20:30 1010 29.83 839 24.78 -0.8 30.5 74 -4.9 23.1 -.527 -0.021
20:31 1010 29.83 839 24.78 -0.8 30.6 75 -4.8 23.4 -.436 -0.017
20:32 1010 29.83 839 24.78 -0.9 30.4 76 -4.6 23.7 -.492 -0.019
20:33 1010 29.83 839 24.78 -1 30.2 77 -4.6 23.7 -.622 -0.024
20:34 1010 29.83 839 24.78 -1.1 30 78 -4.6 23.8 -.758 -0.03
20:35 1010 29.83 839 24.78 -1.3 29.7 78 -4.6 23.7 -.854 -0.034
20:36 1010 29.83 839 24.78 -1.3 29.7 78 -4.6 23.7 -.871 -0.034
20:37 1010 29.83 839 24.78 -1.4 29.5 80 -4.4 24 -1.007 -0.04
20:38 1010 29.83 839 24.78 -1.6 29.2 81 -4.4 24 -1.126 -0.044
20:39 1010 29.83 839 24.78 -1.6 29.1 80 -4.6 23.7 -1.182 -0.047
20:40 1010 29.83 839 24.78 -1.4 29.5 80 -4.5 23.9 -1.024 -0.04
20:41 1010 29.83 839 24.78 -1.2 29.8 79 -4.5 23.9 -.854 -0.034
20:42 1010 29.83 839 24.78 -1.2 29.9 79 -4.3 24.2 -.797 -0.031
20:43 1010 29.83 839 24.78 -1.2 29.9 77 -4.7 23.5 -.78 -0.031
20:44 1010 29.83 839 24.78 -0.9 30.3 75 -4.9 23.3 -.587 -0.023
20:45 1010 29.83 839 24.78 -0.8 30.5 76 -4.6 23.7 -.491 -0.019
20:46 1010 29.83 839 24.78 -0.9 30.4 76 -4.6 23.7 -.468 -0.018
20:47 1010 29.83 839 24.78 -1 30.2 76 -4.8 23.4 -.576 -0.023
20:48 1010 29.83 839 24.78 -1 30.1 76 -4.8 23.4 -.627 -0.025
20:49 1010 29.83 839 24.78 -1.1 30.1 76 -4.7 23.5 -.661 -0.026
20:50 1010 29.83 839 24.78 -1.1 30 77 -4.6 23.6 -.712 -0.028
20:51 1010 29.83 839 24.78 -1.2 29.8 78 -4.6 23.8 -.796 -0.031
20:52 1010 29.83 839 24.78 -1.2 29.8 79 -4.4 24 -.813 -0.032
20:53 1010 29.83 839 24.78 -1.3 29.7 78 -4.6 23.7 -.859 -0.034
20:54 1010 29.83 839 24.78 -1.2 29.8 77 -4.8 23.4 -.819 -0.032
20:55 1010 29.83 839 24.78 -1.2 29.9 76 -5 23.1 -.751 -0.03
20:56 1010 29.83 839 24.78 -1.1 30 75 -4.9 23.2 -.694 -0.027
20:57 1010 29.83 839 24.78 -1.1 30.1 77 -4.7 23.6 -.666 -0.026
20:58 1010 29.83 839 24.78 -1.1 30.1 79 -4.3 24.2 -.66 -0.026
20:59 1010 29.83 839 24.78 -1.1 30.1 76 -4.8 23.3 -.649 -0.026
21:00 1010 29.83 839 24.78 -1 30.3 77 -4.6 23.8 -.57 -0.022
21:01 1010 29.83 839 24.78 -0.9 30.3 77 -4.6 23.8 -.587 -0.023
21:02 1010 29.83 839 24.78 -0.9 30.3 77 -4.6 23.8 -.536 -0.021
21:03 1010 29.83 839 24.78 -0.9 30.4 77 -4.5 23.9 -.507 -0.02
21:04 1010 29.83 839 24.78 -0.9 30.4 76 -4.6 23.8 -.479 -0.019
21:05 1010 29.83 839 24.78 -0.9 30.4 77 -4.5 24 -.473 -0.019
21:06 1010 29.83 839 24.78 -0.9 30.4 77 -4.4 24.1 -.473 -0.019
21:07 1010 29.83 839 24.78 -0.9 30.4 78 -4.3 24.2 -.468 -0.018
21:08 1010 29.83 839 24.78 -0.9 30.4 79 -4.2 24.5 -.479 -0.019
21:09 1010 29.83 839 24.78 -0.9 30.3 78 -4.2 24.4 -.519 -0.02
21:10 1010 29.83 839 24.78 -1 30.3 78 -4.3 24.3 -.513 -0.02
21:11 1010 29.83 839 24.78 -0.9 30.3 78 -4.3 24.3 -.507 -0.02
21:12 1010 29.83 839 24.78 -1 30.3 79 -4.2 24.4 -.547 -0.022
21:13 1010 29.83 839 24.78 -1 30.2 79 -4.2 24.5 -.553 -0.022
21:14 1010 29.83 839 24.78 -1 30.2 79 -4.1 24.5 -.57 -0.022
21:15 1010 29.83 839 24.78 -1 30.2 78 -4.3 24.3 -.598 -0.024
21:16 1010 29.83 839 24.78 -1 30.3 78 -4.3 24.2 -.581 -0.023
21:17 1010 29.83 839 24.78 -0.9 30.3 77 -4.4 24.1 -.53 -0.021
21:18 1010 29.83 839 24.78 -0.9 30.4 78 -4.3 24.2 -.541 -0.021
21:19 1010 29.83 839 24.78 -0.9 30.3 78 -4.3 24.2 -.512 -0.02
21:20 1010 29.83 839 24.78 -0.9 30.3 79 -4.1 24.6 -.5 -0.02
21:21 1010 29.83 839 24.78 -1 30.2 80 -4.1 24.7 -.551 -0.022
21:22 1010 29.83 839 24.78 -1 30.1 80 -4.1 24.6 -.595 -0.023
21:23 1010 29.83 839 24.78 -1.1 30.1 81 -3.9 25 -.624 -0.025
21:24 1010 29.83 839 24.78 -1.2 29.9 82 -3.9 25 -.663 -0.026
21:25 1010 29.83 839 24.78 -1.2 29.8 83 -3.8 25.1 -.73 -0.029
21:26 1010 29.83 839 24.78 -1.3 29.7 82 -3.9 24.9 -.821 -0.032
21:27 1010 29.83 839 24.78 -1.3 29.6 83 -3.8 25.1 -.878 -0.035
21:28 1010 29.83 839 24.78 -1.4 29.5 83 -3.8 25.1 -.911 -0.036
21:29 1010 29.83 839 24.78 -1.5 29.4 83 -3.9 24.9 -.968 -0.038
21:30 1010 29.83 839 24.78 -1.5 29.2 83 -4 24.7 -1.098 -0.043
21:31 1010 29.83 839 24.78 -1.6 29 84 -4.1 24.7 -1.16 -0.046
21:32 1010 29.83 839 24.78 -1.7 28.9 84 -4.1 24.7 -1.227 -0.048
21:33 1010 29.83 839 24.78 -1.8 28.8 85 -4 24.7 -1.312 -0.052
21:34 1010 29.83 839 24.78 -1.8 28.8 85 -4 24.8 -1.329 -0.052
21:35 1010 29.83 839 24.78 -1.8 28.8 85 -4 24.8 -1.346 -0.053
21:36 1010 29.83 840 24.81 -1.7 28.9 85 -4 24.8 -1.368 -0.054
21:37 1010 29.83 839 24.78 -1.7 28.9 85 -4 24.8 -1.34 -0.053
21:38 1010 29.83 840 24.81 -1.8 28.8 84 -4.1 24.6 -1.34 -0.053
21:39 1010 29.83 840 24.81 -1.8 28.7 84 -4.2 24.4 -1.357 -0.053
21:40 1010 29.83 840 24.81 -1.8 28.8 84 -4.2 24.4 -1.385 -0.055
21:41 1010 29.83 839 24.78 -1.8 28.8 83 -4.2 24.4 -1.357 -0.053
21:42 1010 29.83 840 24.81 -1.8 28.8 82 -4.4 24.1 -1.402 -0.055
21:43 1010 29.83 840 24.81 -1.8 28.8 82 -4.5 23.9 -1.373 -0.054
21:44 1010 29.83 840 24.81 -1.7 28.9 81 -4.6 23.7 -1.356 -0.053
21:45 1010 29.83 840 24.81 -1.7 28.9 81 -4.6 23.7 -1.351 -0.053
21:46 1010 29.83 840 24.81 -1.7 29 80 -4.7 23.5 -1.328 -0.052
21:47 1010 29.83 840 24.81 -1.6 29.1 79 -4.7 23.5 -1.243 -0.049
21:48 1010 29.83 840 24.81 -1.6 29.1 79 -4.8 23.4 -1.198 -0.047
21:49 1010 29.83 840 24.81 -1.6 29.1 79 -4.7 23.5 -1.186 -0.047
21:50 1010 29.83 840 24.81 -1.6 29.1 79 -4.8 23.4 -1.249 -0.049
21:51 1010 29.83 840 24.81 -1.7 28.9 79 -4.9 23.3 -1.294 -0.051
21:52 1010 29.83 840 24.81 -1.7 28.9 80 -4.8 23.3 -1.311 -0.052
21:53 1010 29.83 839 24.78 -1.8 28.8 79 -4.9 23.2 -1.345 -0.053
21:54 1010 29.83 839 24.78 -1.7 28.9 79 -4.9 23.2 -1.328 -0.052
21:55 1010 29.83 839 24.78 -1.7 28.9 79 -4.9 23.2 -1.345 -0.053
21:56 1010 29.83 839 24.78 -1.8 28.8 79 -4.9 23.2 -1.322 -0.052
21:57 1010 29.83 839 24.78 -1.8 28.8 80 -4.8 23.3 -1.315 -0.052
21:58 1010 29.83 839 24.78 -1.8 28.8 80 -4.8 23.4 -1.377 -0.054
21:59 1010 29.83 839 24.78 -1.8 28.7 80 -4.9 23.2 -1.405 -0.055
22:00 1010 29.83 839 24.78 -1.8 28.8 80 -4.8 23.4 -1.416 -0.056
22:01 1010 29.83 839 24.78 -1.8 28.7 79 -5 23.1 -1.421 -0.056
22:02 1010 29.83 839 24.78 -1.8 28.7 79 -4.9 23.1 -1.41 -0.056
22:03 1010 29.83 839 24.78 -1.9 28.6 79 -5.1 22.9 -1.471 -0.058
22:04 1010 29.83 839 24.78 -1.9 28.6 79 -5 22.9 -1.449 -0.057
22:05 1010 29.83 839 24.78 -1.8 28.7 79 -5 23 -1.449 -0.057
22:06 1010 29.83 839 24.78 -1.9 28.6 79 -5 22.9 -1.482 -0.058
22:07 1010 29.83 839 24.78 -1.9 28.5 79 -5.1 22.8 -1.482 -0.058
22:08 1010 29.83 839 24.78 -1.9 28.6 78 -5.2 22.7 -1.493 -0.059
22:09 1010 29.83 839 24.78 -1.9 28.7 79 -5.1 22.9 -1.47 -0.058
22:10 1010 29.83 839 24.78 -1.9 28.6 78 -5.2 22.7 -1.448 -0.057
22:11 1010 29.83 839 24.78 -1.9 28.7 79 -5.1 22.9 -1.425 -0.056
22:12 1010 29.83 839 24.78 -1.9 28.6 79 -5.1 22.9 -1.487 -0.059
22:13 1010 29.83 839 24.78 -1.9 28.6 79 -5.1 22.8 -1.509 -0.059
22:14 1010 29.83 839 24.78 -1.9 28.6 79 -5.1 22.8 -1.498 -0.059
22:15 1010 29.83 839 24.78 -1.9 28.6 79 -5.1 22.8 -1.486 -0.059
22:16 1010 29.83 839 24.78 -1.9 28.5 79 -5.1 22.8 -1.503 -0.059
22:17 1010 29.83 839 24.78 -1.9 28.6 79 -5.1 22.8 -1.515 -0.06
22:18 1010 29.83 839 24.78 -1.9 28.6 79 -5.2 22.7 -1.526 -0.06
22:19 1010 29.83 839 24.78 -1.9 28.5 79 -5.1 22.7 -1.531 -0.06
22:20 1010 29.83 839 24.78 -1.9 28.6 79 -5.1 22.8 -1.509 -0.059
22:21 1010 29.83 839 24.78 -1.9 28.6 78 -5.2 22.6 -1.475 -0.058
22:22 1010 29.83 839 24.78 -1.9 28.6 78 -5.2 22.6 -1.458 -0.057
22:23 1010 29.83 839 24.78 -1.9 28.6 78 -5.2 22.6 -1.48 -0.058
22:24 1010 29.83 839 24.78 -1.9 28.7 78 -5.2 22.6 -1.457 -0.057
22:25 1010 29.83 839 24.78 -1.8 28.7 78 -5.3 22.5 -1.457 -0.057
22:26 1010 29.83 839 24.78 -1.9 28.7 78 -5.3 22.5 -1.446 -0.057
22:27 1010 29.83 839 24.78 -1.8 28.7 77 -5.3 22.5 -1.412 -0.056
22:28 1010 29.83 839 24.78 -1.8 28.7 78 -5.2 22.6 -1.446 -0.057
22:29 1010 29.83 839 24.78 -1.8 28.7 78 -5.2 22.7 -1.451 -0.057
22:30 1010 29.83 839 24.78 -1.9 28.7 79 -5.1 22.8 -1.423 -0.056
22:31 1010 29.83 839 24.78 -1.8 28.7 79 -5 23 -1.446 -0.057
22:32 1010 29.83 839 24.78 -1.9 28.7 79 -5 23.1 -1.451 -0.057
22:33 1010 29.83 839 24.78 -1.9 28.6 79 -5 23 -1.468 -0.058
22:34 1010 29.83 839 24.78 -1.9 28.6 80 -4.9 23.1 -1.434 -0.056
22:35 1010 29.83 840 24.81 -1.8 28.7 80 -4.8 23.3 -1.468 -0.058
22:36 1010 29.83 840 24.81 -1.9 28.6 81 -4.8 23.4 -1.434 -0.056
22:37 1010 29.83 840 24.81 -1.9 28.6 82 -4.6 23.7 -1.468 -0.058
22:38 1010 29.83 840 24.81 -1.9 28.6 82 -4.6 23.8 -1.446 -0.057
22:39 1010 29.83 840 24.81 -1.9 28.6 82 -4.6 23.7 -1.451 -0.057
22:40 1010 29.83 840 24.81 -1.8 28.7 82 -4.5 23.8 -1.417 -0.056
22:41 1010 29.83 840 24.81 -1.8 28.8 82 -4.5 23.8 -1.361 -0.054
22:42 1010 29.83 840 24.81 -1.7 28.9 82 -4.5 23.9 -1.344 -0.053
22:43 1010 29.83 840 24.81 -1.7 28.9 82 -4.4 24 -1.321 -0.052
22:44 1010 29.83 840 24.81 -1.7 28.9 82 -4.5 24 -1.315 -0.052
22:45 1010 29.83 840 24.81 -1.7 28.9 82 -4.5 24 -1.321 -0.052
22:46 1010 29.83 840 24.81 -1.8 28.8 82 -4.5 23.9 -1.349 -0.053
22:47 1010 29.83 840 24.81 -1.8 28.7 82 -4.5 23.9 -1.372 -0.054
22:48 1010 29.83 839 24.78 -1.9 28.6 82 -4.5 23.9 -1.428 -0.056
22:49 1010 29.83 839 24.78 -1.9 28.6 82 -4.5 23.8 -1.474 -0.058
22:50 1010 29.83 839 24.78 -2 28.5 83 -4.6 23.8 -1.513 -0.06
22:51 1010 29.83 839 24.78 -2 28.5 82 -4.7 23.6 -1.576 -0.062
22:52 1010 29.83 839 24.78 -2 28.5 81 -4.7 23.5 -1.542 -0.061
22:53 1010 29.83 839 24.78 -1.9 28.6 81 -4.7 23.6 -1.508 -0.059
22:54 1010 29.83 839 24.78 -1.8 28.7 81 -4.7 23.6 -1.479 -0.058
22:55 1010 29.83 839 24.78 -1.8 28.7 81 -4.6 23.6 -1.451 -0.057
22:56 1010 29.83 840 24.81 -1.8 28.7 81 -4.7 23.6 -1.394 -0.055
22:57 1010 29.83 839 24.78 -1.8 28.7 81 -4.7 23.6 -1.411 -0.056
22:58 1010 29.83 839 24.78 -1.8 28.7 81 -4.7 23.5 -1.423 -0.056
22:59 1010 29.83 839 24.78 -1.8 28.7 81 -4.7 23.5 -1.423 -0.056
23:00 1010 29.83 839 24.78 -1.8 28.7 80 -4.8 23.3 -1.434 -0.056
23:01 1010 29.83 839 24.78 -1.9 28.7 80 -4.8 23.4 -1.44 -0.057
23:02 1010 29.83 839 24.78 -1.9 28.6 81 -4.8 23.4 -1.513 -0.06
23:03 1010 29.83 839 24.78 -2 28.5 81 -4.8 23.4 -1.553 -0.061
23:04 1010 29.83 839 24.78 -2 28.4 81 -4.9 23.2 -1.593 -0.063
23:05 1010 29.83 839 24.78 -2 28.4 80 -4.9 23.1 -1.615 -0.064
23:06 1010 29.83 839 24.78 -2 28.4 80 -4.9 23.1 -1.61 -0.063
23:07 1010 29.83 839 24.78 -2 28.4 81 -4.9 23.3 -1.587 -0.062
23:08 1010 29.83 839 24.78 -2 28.4 81 -4.8 23.3 -1.638 -0.064
23:09 1010 29.83 839 24.78 -2.1 28.2 82 -4.8 23.4 -1.666 -0.066
23:10 1010 29.83 839 24.78 -2.1 28.2 82 -4.7 23.5 -1.694 -0.067
23:11 1010 29.83 839 24.78 -2.2 28.1 82 -4.8 23.3 -1.711 -0.067
23:12 1010 29.83 839 24.78 -2.2 28.1 82 -4.8 23.3 -1.717 -0.068
23:13 1010 29.83 839 24.78 -2.1 28.2 82 -4.8 23.4 -1.711 -0.067
23:14 1010 29.83 839 24.78 -2.1 28.2 81 -4.9 23.2 -1.7 -0.067
23:15 1010 29.83 839 24.78 -2.1 28.3 81 -4.8 23.3 -1.672 -0.066
23:16 1010 29.83 839 24.78 -2 28.4 81 -4.8 23.3 -1.638 -0.064
23:17 1010 29.83 839 24.78 -2 28.4 81 -4.8 23.3 -1.593 -0.063
23:18 1010 29.83 839 24.78 -2 28.4 81 -4.8 23.4 -1.604 -0.063
23:19 1010 29.83 839 24.78 -2 28.5 81 -4.8 23.3 -1.593 -0.063
23:20 1010 29.83 839 24.78 -2 28.5 81 -4.8 23.4 -1.559 -0.061
23:21 1010 29.83 839 24.78 -2 28.5 81 -4.8 23.4 -1.559 -0.061
23:22 1010 29.83 839 24.78 -2 28.5 81 -4.8 23.3 -1.587 -0.062
23:23 1010 29.83 839 24.78 -2 28.5 81 -4.8 23.3 -1.547 -0.061
23:24 1010 29.83 839 24.78 -2 28.4 81 -4.9 23.2 -1.587 -0.062
23:25 1010 29.83 839 24.78 -2 28.4 81 -4.9 23.2 -1.581 -0.062
23:26 1010 29.83 839 24.78 -2 28.3 80 -5 23.1 -1.604 -0.063
23:27 1010 29.83 839 24.78 -2 28.4 80 -5 23.1 -1.626 -0.064
23:28 1010 29.83 839 24.78 -2.1 28.3 80 -5 23 -1.632 -0.064
23:29 1010 29.83 839 24.78 -2.1 28.2 80 -5.1 22.9 -1.66 -0.065
23:30 1010 29.83 839 24.78 -2.1 28.3 80 -5 23 -1.677 -0.066
23:31 1010 29.83 839 24.78 -2.1 28.2 80 -5.1 22.9 -1.74 -0.069
23:32 1010 29.83 839 24.78 -2.1 28.1 80 -5.2 22.7 -1.74 -0.069
23:33 1010 29.83 839 24.78 -2.1 28.1 79 -5.3 22.5 -1.74 -0.069
23:34 1010 29.83 839 24.78 -2.1 28.2 79 -5.3 22.5 -1.717 -0.068
23:35 1010 29.83 839 24.78 -2.1 28.2 79 -5.2 22.6 -1.694 -0.067
23:36 1010 29.83 839 24.78 -2.1 28.2 79 -5.2 22.6 -1.683 -0.066
23:37 1010 29.83 839 24.78 -2.1 28.2 79 -5.2 22.7 -1.717 -0.068
23:38 1010 29.83 839 24.78 -2.1 28.2 79 -5.2 22.6 -1.711 -0.067
23:39 1010 29.83 839 24.78 -2.2 28.1 79 -5.3 22.5 -1.723 -0.068
23:40 1010 29.83 839 24.78 -2.1 28.1 80 -5.2 22.6 -1.728 -0.068
23:41 1010 29.83 839 24.78 -2.2 28.1 79 -5.3 22.5 -1.774 -0.07
23:42 1010 29.83 839 24.78 -2.2 28.1 80 -5.2 22.6 -1.779 -0.07
23:43 1010 29.83 839 24.78 -2.2 28.1 80 -5.1 22.8 -1.751 -0.069
23:44 1010 29.83 839 24.78 -2.2 28 81 -5 23.1 -1.768 -0.07
23:45 1010 29.83 839 24.78 -2.3 27.9 82 -5 23 -1.859 -0.073
23:46 1010 29.83 839 24.78 -2.3 27.8 82 -4.9 23.1 -1.876 -0.074
23:47 1010 29.83 839 24.78 -2.4 27.7 82 -5 23.1 -1.915 -0.075
23:48 1010 29.83 839 24.78 -2.4 27.7 82 -5 23.1 -1.927 -0.076
23:49 1010 29.83 839 24.78 -2.3 27.8 82 -5 23 -1.955 -0.077
23:50 1010 29.83 839 24.78 -2.3 27.8 82 -5 23 -1.904 -0.075
23:51 1010 29.83 839 24.78 -2.2 28 82 -4.9 23.2 -1.881 -0.074
23:52 1010 29.83 839 24.78 -2.3 27.9 83 -4.8 23.3 -1.853 -0.073
23:53 1010 29.83 839 24.78 -2.3 27.8 83 -4.8 23.3 -1.876 -0.074
23:54 1010 29.83 839 24.78 -2.3 27.8 83 -4.8 23.4 -1.881 -0.074
23:55 1010 29.83 839 24.78 -2.3 27.9 83 -4.8 23.4 -1.836 -0.072
23:56 1010 29.83 839 24.78 -2.3 27.9 82 -4.9 23.2 -1.887 -0.074
23:57 1010 29.83 839 24.78 -2.3 27.9 82 -4.9 23.2 -1.887 -0.074
23:58 1010 29.83 839 24.78 -2.2 28 83 -4.8 23.3 -1.819 -0.072
23:59 1010 29.83 839 24.78 -2.2 28 82 -4.8 23.3 -1.825 -0.072
24:00 1010 29.83 839 24.78 -2.3 27.9 82 -4.9 23.2 -1.842 -0.073